Time,TemperatureF,DewpointF,PressureIn,WindDirection,WindDirectionDegrees,WindSpeedMPH,WindSpeedGustMPH,Humidity,HourlyPrecipIn,Conditions,Clouds,dailyrainin,SoftwareType,DateUTC
2013-01-16 00:00:00,56.7,56.1,29.80,SSE,158,7.4,7.4,98,0.00,CLR,,0.00,WeatherDisplay:10.37,2013-01-15 22:00:00,
2013-01-16 00:01:00,56.7,56.1,29.80,SE,135,6.9,6.9,98,0.00,CLR,,0.00,WeatherDisplay:10.37,2013-01-15 22:01:00,
2013-01-16 00:02:00,56.7,56.1,29.80,South,180,4.6,4.6,98,0.00,CLR,,0.00,WeatherDisplay:10.37,2013-01-15 22:02:00,
2013-01-16 00:04:00,56.7,56.1,29.80,SE,135,4.6,4.6,98,0.00,CLR,,0.00,WeatherDisplay:10.37,2013-01-15 22:04:00,
2013-01-16 00:05:00,56.7,56.1,29.80,SSE,158,3.5,3.5,98,0.00,CLR,,0.00,WeatherDisplay:10.37,2013-01-15 22:05:00,
2013-01-16 00:07:00,56.7,56.1,29.80,SSW,202,5.8,5.8,98,0.00,CLR,,0.00,WeatherDisplay:10.37,2013-01-15 22:07:00,
2013-01-16 00:09:00,56.7,56.1,29.80,SE,135,6.9,6.9,98,0.00,CLR,,0.00,WeatherDisplay:10.37,2013-01-15 22:09:00,
2013-01-16 00:10:00,56.7,56.1,29.80,SSE,158,14.5,14.5,98,0.00,CLR,,0.00,WeatherDisplay:10.37,2013-01-15 22:10:00,
2013-01-16 00:12:00,56.8,56.3,29.80,SSE,158,11.5,11.5,98,0.00,CLR,,0.00,WeatherDisplay:10.37,2013-01-15 22:12:00,
2013-01-16 00:14:00,56.8,56.3,29.80,SSW,202,10.4,10.4,98,0.00,CLR,,0.00,WeatherDisplay:10.37,2013-01-15 22:14:00,
2013-01-16 00:15:00,56.8,56.3,29.80,SSW,202,17.3,17.3,98,0.00,CLR,,0.00,WeatherDisplay:10.37,2013-01-15 22:15:00,
2013-01-16 00:17:00,57.0,56.7,29.80,SSE,158,12.5,12.5,99,0.00,CLR,,0.00,WeatherDisplay:10.37,2013-01-15 22:17:00,
2013-01-16 00:18:00,57.0,56.7,29.80,SSE,158,8.1,8.1,99,0.00,CLR,,0.00,WeatherDisplay:10.37,2013-01-15 22:18:00,
2013-01-16 00:19:00,57.0,56.7,29.80,SSE,158,19.0,19.0,99,0.00,CLR,,0.00,WeatherDisplay:10.37,2013-01-15 22:19:00,
2013-01-16 00:20:00,57.2,56.9,29.80,SSE,158,18.4,18.4,99,0.00,CLR,,0.00,WeatherDisplay:10.37,2013-01-15 22:20:00,
2013-01-16 00:22:00,57.2,56.9,29.80,SSE,158,23.0,23.0,99,0.00,CLR,,0.00,WeatherDisplay:10.37,2013-01-15 22:22:00,
2013-01-16 00:23:00,57.2,56.9,29.80,SSE,158,23.0,23.0,99,0.00,CLR,,0.00,WeatherDisplay:10.37,2013-01-15 22:23:00,
2013-01-16 00:24:00,57.4,57.1,29.80,SSE,158,21.9,21.9,99,0.00,CLR,,0.00,WeatherDisplay:10.37,2013-01-15 22:24:00,
2013-01-16 00:25:00,57.4,57.1,29.80,SSW,202,18.4,18.4,99,0.00,CLR,,0.00,WeatherDisplay:10.37,2013-01-15 22:25:00,
2013-01-16 00:27:00,57.6,57.0,29.80,ESE,112,16.1,16.1,98,0.00,CLR,,0.00,WeatherDisplay:10.37,2013-01-15 22:27:00,
2013-01-16 00:28:00,57.6,57.0,29.80,SSE,158,16.1,16.1,98,0.00,CLR,,0.00,WeatherDisplay:10.37,2013-01-15 22:28:00,
2013-01-16 00:29:00,57.6,56.7,29.80,SSE,158,25.3,25.3,97,0.00,CLR,,0.00,WeatherDisplay:10.37,2013-01-15 22:29:00,
2013-01-16 00:31:00,57.6,56.4,29.80,SSE,158,25.3,25.3,96,0.00,CLR,,0.00,WeatherDisplay:10.37,2013-01-15 22:31:00,
2013-01-16 00:33:00,57.7,56.3,29.80,SSE,158,13.8,13.8,95,0.00,CLR,,0.00,WeatherDisplay:10.37,2013-01-15 22:33:00,
2013-01-16 00:34:00,57.9,56.2,29.80,SSE,158,23.0,23.0,94,0.00,CLR,,0.00,WeatherDisplay:10.37,2013-01-15 22:34:00,
2013-01-16 00:36:00,57.9,55.9,29.80,SSE,158,17.3,17.3,93,0.00,CLR,,0.00,WeatherDisplay:10.37,2013-01-15 22:36:00,
2013-01-16 00:38:00,57.9,55.9,29.80,SSE,158,19.6,19.6,93,0.00,CLR,,0.00,WeatherDisplay:10.37,2013-01-15 22:38:00,
2013-01-16 00:40:00,58.1,56.1,29.80,SSE,158,8.1,8.1,93,0.00,CLR,,0.00,WeatherDisplay:10.37,2013-01-15 22:40:00,
2013-01-16 00:41:00,58.1,56.4,29.80,South,180,15.0,15.0,94,0.00,CLR,,0.00,WeatherDisplay:10.37,2013-01-15 22:41:00,
2013-01-16 00:43:00,58.1,56.1,29.80,SSW,202,25.3,25.3,93,0.00,CLR,,0.00,WeatherDisplay:10.37,2013-01-15 22:43:00,
2013-01-16 00:45:00,58.1,56.1,29.80,South,180,19.6,19.6,93,0.00,CLR,,0.00,WeatherDisplay:10.37,2013-01-15 22:45:00,
2013-01-16 00:46:00,58.1,56.1,29.80,SSE,158,17.3,17.3,93,0.00,CLR,,0.00,WeatherDisplay:10.37,2013-01-15 22:46:00,
2013-01-16 00:48:00,58.1,55.8,29.74,SSE,158,21.9,21.9,92,0.00,CLR,,0.00,WeatherDisplay:10.37,2013-01-15 22:48:00,
2013-01-16 00:49:00,58.1,55.8,29.74,SSE,158,21.9,21.9,92,0.00,CLR,,0.00,WeatherDisplay:10.37,2013-01-15 22:49:00,
2013-01-16 00:50:00,58.1,55.8,29.74,South,180,23.0,23.0,92,0.00,CLR,,0.00,WeatherDisplay:10.37,2013-01-15 22:50:00,
2013-01-16 00:51:00,58.1,55.5,29.74,SSE,158,23.0,23.0,91,0.00,CLR,,0.00,WeatherDisplay:10.37,2013-01-15 22:51:00,
2013-01-16 00:53:00,58.1,55.5,29.74,SE,135,16.1,16.1,91,0.00,CLR,,0.00,WeatherDisplay:10.37,2013-01-15 22:53:00,
2013-01-16 00:54:00,58.1,55.5,29.74,SSW,202,15.0,15.0,91,0.00,CLR,,0.00,WeatherDisplay:10.37,2013-01-15 22:54:00,
2013-01-16 00:55:00,58.1,55.5,29.74,South,180,23.0,23.0,91,0.00,CLR,,0.00,WeatherDisplay:10.37,2013-01-15 22:55:00,
2013-01-16 00:57:00,58.1,55.5,29.74,SSW,202,18.7,18.7,91,0.00,CLR,,0.00,WeatherDisplay:10.37,2013-01-15 22:57:00,
2013-01-16 00:58:00,58.1,55.5,29.74,SSW,202,19.7,19.7,91,0.00,CLR,,0.00,WeatherDisplay:10.37,2013-01-15 22:58:00,
2013-01-16 00:59:00,58.3,55.7,29.74,SSE,158,19.6,19.6,91,0.00,CLR,,0.00,WeatherDisplay:10.37,2013-01-15 22:59:00,
2013-01-16 01:01:00,58.3,56.0,29.74,South,180,15.4,15.4,92,0.00,CLR,,0.00,WeatherDisplay:10.37,2013-01-15 23:01:00,
2013-01-16 01:02:00,58.3,56.0,29.77,South,180,15.0,15.0,92,0.00,CLR,,0.00,WeatherDisplay:10.37,2013-01-15 23:02:00,
2013-01-16 01:03:00,58.3,56.0,29.77,SSE,158,12.7,12.7,92,0.00,CLR,,0.00,WeatherDisplay:10.37,2013-01-15 23:03:00,
2013-01-16 01:04:00,58.1,55.8,29.77,SSE,158,12.7,12.7,92,0.00,CLR,,0.00,WeatherDisplay:10.37,2013-01-15 23:04:00,
2013-01-16 01:06:00,58.3,56.0,29.77,SSW,202,24.2,24.2,92,0.00,CLR,,0.00,WeatherDisplay:10.37,2013-01-15 23:06:00,
2013-01-16 01:07:00,58.3,56.0,29.77,SSE,158,18.4,18.4,92,0.00,CLR,,0.00,WeatherDisplay:10.37,2013-01-15 23:07:00,
2013-01-16 01:09:00,58.3,56.3,29.77,SSE,158,23.0,23.0,93,0.00,CLR,,0.00,WeatherDisplay:10.37,2013-01-15 23:09:00,
2013-01-16 01:11:00,58.1,56.1,29.77,SSE,158,17.3,17.3,93,0.00,CLR,,0.00,WeatherDisplay:10.37,2013-01-15 23:11:00,
2013-01-16 01:12:00,58.1,56.1,29.77,SSE,158,15.0,15.0,93,0.00,CLR,,0.00,WeatherDisplay:10.37,2013-01-15 23:12:00,
2013-01-16 01:14:00,58.1,56.1,29.77,SSE,158,15.6,15.6,93,0.00,CLR,,0.00,WeatherDisplay:10.37,2013-01-15 23:14:00,
2013-01-16 01:16:00,58.3,56.6,29.77,SSW,202,29.9,29.9,94,0.00,CLR,,0.00,WeatherDisplay:10.37,2013-01-15 23:16:00,
2013-01-16 01:17:00,58.3,56.6,29.77,SSE,158,19.6,19.6,94,0.00,CLR,,0.00,WeatherDisplay:10.37,2013-01-15 23:17:00,
2013-01-16 01:19:00,58.3,56.6,29.77,SSE,158,18.4,18.4,94,0.00,CLR,,0.00,WeatherDisplay:10.37,2013-01-15 23:19:00,
2013-01-16 01:20:00,58.3,56.6,29.77,SSE,158,17.3,17.3,94,0.00,CLR,,0.00,WeatherDisplay:10.37,2013-01-15 23:20:00,
2013-01-16 01:21:00,58.3,56.6,29.77,SSE,158,17.8,17.8,94,0.00,CLR,,0.00,WeatherDisplay:10.37,2013-01-15 23:21:00,
2013-01-16 01:22:00,58.3,56.6,29.77,SSE,158,18.4,18.4,94,0.00,CLR,,0.00,WeatherDisplay:10.37,2013-01-15 23:22:00,
2013-01-16 01:24:00,58.3,56.6,29.77,SSE,158,26.5,26.5,94,0.00,CLR,,0.00,WeatherDisplay:10.37,2013-01-15 23:24:00,
2013-01-16 01:25:00,58.3,56.6,29.77,SSE,158,17.3,17.3,94,0.00,CLR,,0.00,WeatherDisplay:10.37,2013-01-15 23:25:00,
2013-01-16 01:26:00,58.3,56.6,29.77,SE,135,17.3,17.3,94,0.00,CLR,,0.00,WeatherDisplay:10.37,2013-01-15 23:26:00,
2013-01-16 01:27:00,58.3,56.6,29.77,South,180,26.5,26.5,94,0.00,CLR,,0.00,WeatherDisplay:10.37,2013-01-15 23:27:00,
2013-01-16 01:29:00,58.3,56.6,29.77,SSE,158,12.7,13.2,94,0.00,CLR,,0.00,WeatherDisplay:10.37,2013-01-15 23:29:00,
2013-01-16 01:30:00,58.3,56.6,29.77,SSE,158,15.0,15.0,94,0.00,CLR,,0.00,WeatherDisplay:10.37,2013-01-15 23:30:00,
2013-01-16 01:31:00,58.3,56.6,29.77,SSE,158,17.3,17.3,94,0.00,CLR,,0.00,WeatherDisplay:10.37,2013-01-15 23:31:00,
2013-01-16 01:32:00,58.3,56.9,29.74,SSE,158,15.0,15.0,95,0.00,CLR,,0.00,WeatherDisplay:10.37,2013-01-15 23:32:00,
2013-01-16 01:34:00,58.1,56.7,29.74,SSE,158,20.7,20.7,95,0.00,CLR,,0.00,WeatherDisplay:10.37,2013-01-15 23:34:00,
2013-01-16 01:35:00,58.1,56.7,29.74,SSE,158,23.0,23.0,95,0.00,CLR,,0.00,WeatherDisplay:10.37,2013-01-15 23:35:00,
2013-01-16 01:36:00,58.1,56.7,29.74,SSE,158,16.8,16.8,95,0.00,CLR,,0.00,WeatherDisplay:10.37,2013-01-15 23:36:00,
2013-01-16 01:37:00,58.1,56.7,29.74,South,180,19.6,19.6,95,0.00,CLR,,0.00,WeatherDisplay:10.37,2013-01-15 23:37:00,
2013-01-16 01:39:00,58.1,56.7,29.74,SSE,158,14.3,14.3,95,0.00,CLR,,0.00,WeatherDisplay:10.37,2013-01-15 23:39:00,
2013-01-16 01:40:00,58.1,56.7,29.74,SE,135,18.4,18.4,95,0.00,CLR,,0.00,WeatherDisplay:10.37,2013-01-15 23:40:00,
2013-01-16 01:41:00,58.1,56.7,29.74,SSE,158,19.7,19.7,95,0.00,CLR,,0.00,WeatherDisplay:10.37,2013-01-15 23:41:00,
2013-01-16 01:42:00,58.1,56.7,29.74,SE,135,19.6,19.6,95,0.00,CLR,,0.00,WeatherDisplay:10.37,2013-01-15 23:42:00,
2013-01-16 01:45:00,58.3,56.6,29.74,SSE,158,25.3,25.3,94,0.00,CLR,,0.00,WeatherDisplay:10.37,2013-01-15 23:45:00,
2013-01-16 01:46:00,58.3,56.3,29.74,South,180,21.9,21.9,93,0.00,CLR,,0.00,WeatherDisplay:10.37,2013-01-15 23:46:00,
2013-01-16 01:47:00,58.3,56.3,29.77,SSE,158,23.0,23.0,93,0.00,CLR,,0.00,WeatherDisplay:10.37,2013-01-15 23:47:00,
2013-01-16 01:50:00,58.5,56.1,29.77,SE,135,13.8,13.8,92,0.00,CLR,,0.00,WeatherDisplay:10.37,2013-01-15 23:50:00,
2013-01-16 01:51:00,58.5,56.1,29.77,SSW,202,16.1,16.1,92,0.00,CLR,,0.00,WeatherDisplay:10.37,2013-01-15 23:51:00,
2013-01-16 01:52:00,58.5,56.1,29.77,South,180,16.1,16.1,92,0.00,CLR,,0.00,WeatherDisplay:10.37,2013-01-15 23:52:00,
2013-01-16 01:55:00,58.5,56.1,29.77,South,180,22.5,22.5,92,0.00,CLR,,0.00,WeatherDisplay:10.37,2013-01-15 23:55:00,
2013-01-16 01:56:00,58.5,56.1,29.77,SSW,202,24.2,24.2,92,0.00,CLR,,0.00,WeatherDisplay:10.37,2013-01-15 23:56:00,
2013-01-16 01:57:00,58.5,56.1,29.77,SSE,158,23.0,23.0,92,0.00,CLR,,0.00,WeatherDisplay:10.37,2013-01-15 23:57:00,
2013-01-16 02:00:00,58.5,56.1,29.77,SSE,158,22.8,22.8,92,0.00,CLR,,0.00,WeatherDisplay:10.37,2013-01-16 00:00:00,
2013-01-16 02:02:00,58.5,56.1,29.74,SSE,158,24.4,24.4,92,0.00,CLR,,0.00,WeatherDisplay:10.37,2013-01-16 00:02:00,
2013-01-16 02:05:00,58.6,56.3,29.74,SSE,158,17.3,17.3,92,0.00,CLR,,0.00,WeatherDisplay:10.37,2013-01-16 00:05:00,
2013-01-16 02:07:00,58.6,56.3,29.74,SSW,202,9.2,9.2,92,0.00,CLR,,0.00,WeatherDisplay:10.37,2013-01-16 00:07:00,
2013-01-16 02:10:00,58.6,56.3,29.74,SSE,158,23.0,23.0,92,0.00,CLR,,0.00,WeatherDisplay:10.37,2013-01-16 00:10:00,
2013-01-16 02:11:00,58.6,56.3,29.74,SSE,158,23.5,23.5,92,0.00,CLR,,0.00,WeatherDisplay:10.37,2013-01-16 00:11:00,
2013-01-16 02:12:00,58.6,56.0,29.74,WSW,248,23.0,23.0,91,0.00,CLR,,0.00,WeatherDisplay:10.37,2013-01-16 00:12:00,
2013-01-16 02:16:00,58.8,55.9,29.74,NNE,22,12.7,12.7,90,0.00,CLR,,0.00,WeatherDisplay:10.37,2013-01-16 00:16:00,
2013-01-16 02:17:00,58.8,55.9,29.74,SSE,158,21.9,21.9,90,0.00,CLR,,0.00,WeatherDisplay:10.37,2013-01-16 00:17:00,
2013-01-16 02:21:00,58.8,55.9,29.74,South,180,27.6,27.6,90,0.00,CLR,,0.00,WeatherDisplay:10.37,2013-01-16 00:21:00,
2013-01-16 02:22:00,58.8,55.9,29.74,SSE,158,27.6,27.6,90,0.00,CLR,,0.00,WeatherDisplay:10.37,2013-01-16 00:22:00,
2013-01-16 02:23:00,58.8,55.6,29.74,SSE,158,27.6,27.6,89,0.00,CLR,,0.00,WeatherDisplay:10.37,2013-01-16 00:23:00,
2013-01-16 02:26:00,58.8,55.6,29.74,South,180,24.2,24.2,89,0.00,CLR,,0.00,WeatherDisplay:10.37,2013-01-16 00:26:00,
2013-01-16 02:27:00,58.8,55.6,29.74,SSW,202,24.2,24.2,89,0.00,CLR,,0.00,WeatherDisplay:10.37,2013-01-16 00:27:00,
2013-01-16 02:28:00,58.8,55.6,29.74,SW,225,23.2,23.2,89,0.00,CLR,,0.00,WeatherDisplay:10.37,2013-01-16 00:28:00,
2013-01-16 02:31:00,58.8,55.6,29.74,South,180,33.4,33.4,89,0.00,CLR,,0.00,WeatherDisplay:10.37,2013-01-16 00:31:00,
2013-01-16 02:32:00,59.0,55.4,29.74,SE,135,33.4,33.4,88,0.00,CLR,,0.00,WeatherDisplay:10.37,2013-01-16 00:32:00,
2013-01-16 02:33:00,59.0,55.8,29.74,SSW,202,19.6,19.6,89,0.00,CLR,,0.00,WeatherDisplay:10.37,2013-01-16 00:33:00,
2013-01-16 02:36:00,58.8,55.9,29.74,SSW,202,21.9,21.9,90,0.00,CLR,,0.00,WeatherDisplay:10.37,2013-01-16 00:36:00,
2013-01-16 02:37:00,58.8,55.9,29.74,ESE,112,10.4,11.2,90,0.00,CLR,,0.00,WeatherDisplay:10.37,2013-01-16 00:37:00,
2013-01-16 02:38:00,58.8,55.9,29.74,South,180,10.4,10.7,90,0.00,CLR,,0.00,WeatherDisplay:10.37,2013-01-16 00:38:00,
2013-01-16 02:42:00,58.8,56.2,29.74,South,180,23.0,23.0,91,0.00,CLR,,0.00,WeatherDisplay:10.37,2013-01-16 00:42:00,
2013-01-16 02:43:00,58.8,56.5,29.74,SSE,158,17.3,17.3,92,0.00,CLR,,0.00,WeatherDisplay:10.37,2013-01-16 00:43:00,
2013-01-16 02:47:00,58.8,56.5,29.71,SSE,158,15.0,15.0,92,0.00,CLR,,0.00,WeatherDisplay:10.37,2013-01-16 00:47:00,
2013-01-16 02:48:00,58.8,56.5,29.71,SSE,158,19.6,19.6,92,0.00,CLR,,0.00,WeatherDisplay:10.37,2013-01-16 00:48:00,
2013-01-16 02:52:00,58.8,56.8,29.71,SSE,158,12.8,12.8,93,0.00,CLR,,0.00,WeatherDisplay:10.37,2013-01-16 00:52:00,
2013-01-16 02:53:00,58.8,56.5,29.71,SSE,158,24.2,24.2,92,0.00,CLR,,0.00,WeatherDisplay:10.37,2013-01-16 00:53:00,
2013-01-16 02:57:00,58.8,56.8,29.71,SW,225,8.1,8.1,93,0.00,CLR,,0.00,WeatherDisplay:10.37,2013-01-16 00:57:00,
2013-01-16 02:58:00,58.8,56.8,29.71,ESE,112,8.1,8.1,93,0.00,CLR,,0.00,WeatherDisplay:10.37,2013-01-16 00:58:00,
2013-01-16 03:02:00,58.8,56.5,29.74,SSE,158,9.8,9.8,92,0.00,CLR,,0.00,WeatherDisplay:10.37,2013-01-16 01:02:00,
2013-01-16 03:03:00,58.8,56.5,29.74,SSE,158,10.0,10.0,92,0.00,CLR,,0.00,WeatherDisplay:10.37,2013-01-16 01:03:00,
2013-01-16 03:07:00,58.8,56.5,29.74,SSE,158,16.1,16.1,92,0.00,CLR,,0.00,WeatherDisplay:10.37,2013-01-16 01:07:00,
2013-01-16 03:08:00,58.8,56.5,29.74,WSW,248,16.1,16.1,92,0.00,CLR,,0.00,WeatherDisplay:10.37,2013-01-16 01:08:00,
2013-01-16 03:12:00,59.0,55.4,29.74,ESE,112,25.9,25.9,88,0.00,CLR,,0.00,WeatherDisplay:10.37,2013-01-16 01:12:00,
2013-01-16 03:13:00,59.0,55.8,29.74,SSE,158,25.3,25.3,89,0.00,CLR,,0.00,WeatherDisplay:10.37,2013-01-16 01:13:00,
2013-01-16 03:17:00,58.8,55.9,29.71,SSE,158,12.7,12.7,90,0.00,CLR,,0.00,WeatherDisplay:10.37,2013-01-16 01:17:00,
2013-01-16 03:18:00,58.8,55.9,29.71,SSE,158,20.7,20.7,90,0.00,CLR,,0.00,WeatherDisplay:10.37,2013-01-16 01:18:00,
2013-01-16 03:22:00,58.8,55.6,29.71,SSE,158,13.8,13.8,89,0.00,CLR,,0.00,WeatherDisplay:10.37,2013-01-16 01:22:00,
2013-01-16 03:23:00,58.8,55.6,29.71,SSE,158,16.1,16.1,89,0.00,CLR,,0.00,WeatherDisplay:10.37,2013-01-16 01:23:00,
2013-01-16 03:24:00,58.8,55.3,29.71,SSE,158,16.1,16.1,88,0.00,CLR,,0.00,WeatherDisplay:10.37,2013-01-16 01:24:00,
2013-01-16 03:27:00,58.8,55.0,29.71,SSE,158,13.8,13.8,87,0.00,CLR,,0.00,WeatherDisplay:10.37,2013-01-16 01:27:00,
2013-01-16 03:28:00,58.8,55.0,29.71,SSE,158,10.4,10.4,87,0.00,CLR,,0.00,WeatherDisplay:10.37,2013-01-16 01:28:00,
2013-01-16 03:29:00,58.8,55.0,29.71,ESE,112,14.5,14.5,87,0.00,CLR,,0.00,WeatherDisplay:10.37,2013-01-16 01:29:00,
2013-01-16 03:32:00,58.8,54.6,29.77,SE,135,13.8,13.8,86,0.00,CLR,,0.00,WeatherDisplay:10.37,2013-01-16 01:32:00,
2013-01-16 03:33:00,58.8,55.0,29.77,ESE,112,17.3,17.3,87,0.00,CLR,,0.00,WeatherDisplay:10.37,2013-01-16 01:33:00,
2013-01-16 03:34:00,58.8,55.0,29.77,ESE,112,18.5,18.5,87,0.00,CLR,,0.00,WeatherDisplay:10.37,2013-01-16 01:34:00,
2013-01-16 03:37:00,58.8,55.3,29.77,SSE,158,17.3,17.3,88,0.00,CLR,,0.00,WeatherDisplay:10.37,2013-01-16 01:37:00,
2013-01-16 03:38:00,58.6,54.8,29.77,SE,135,17.3,17.3,87,0.00,CLR,,0.00,WeatherDisplay:10.37,2013-01-16 01:38:00,
2013-01-16 03:39:00,58.6,54.8,29.77,SE,135,17.3,17.3,87,0.00,CLR,,0.00,WeatherDisplay:10.37,2013-01-16 01:39:00,
2013-01-16 03:42:00,58.6,54.5,29.77,ESE,112,19.6,19.6,86,0.00,CLR,,0.00,WeatherDisplay:10.37,2013-01-16 01:42:00,
2013-01-16 03:44:00,58.6,54.5,29.77,ESE,112,19.6,19.6,86,0.00,CLR,,0.00,WeatherDisplay:10.37,2013-01-16 01:44:00,
2013-01-16 03:48:00,58.6,55.1,29.74,East,90,12.7,12.7,88,0.00,CLR,,0.00,WeatherDisplay:10.37,2013-01-16 01:48:00,
2013-01-16 03:49:00,58.6,55.1,29.74,SE,135,12.3,12.3,88,0.00,CLR,,0.00,WeatherDisplay:10.37,2013-01-16 01:49:00,
2013-01-16 03:53:00,58.6,55.7,29.74,South,180,10.4,10.4,90,0.00,CLR,,0.00,WeatherDisplay:10.37,2013-01-16 01:53:00,
2013-01-16 03:54:00,58.5,55.5,29.74,SSE,158,10.4,10.4,90,0.00,CLR,,0.00,WeatherDisplay:10.37,2013-01-16 01:54:00,
2013-01-16 03:58:00,58.5,55.8,29.74,SSE,158,15.0,15.0,91,0.00,CLR,,0.00,WeatherDisplay:10.37,2013-01-16 01:58:00,
2013-01-16 03:59:00,58.3,56.0,29.74,ENE,68,17.0,17.0,92,0.00,CLR,,0.00,WeatherDisplay:10.37,2013-01-16 01:59:00,
2013-01-16 04:04:00,58.3,56.0,29.71,ESE,112,10.2,10.2,92,0.00,CLR,,0.00,WeatherDisplay:10.37,2013-01-16 02:04:00,
2013-01-16 04:09:00,58.3,55.7,29.71,SE,135,17.3,17.3,91,0.00,CLR,,0.00,WeatherDisplay:10.37,2013-01-16 02:09:00,
2013-01-16 04:14:00,58.5,54.9,29.71,SSE,158,13.8,13.8,88,0.00,CLR,,0.00,WeatherDisplay:10.37,2013-01-16 02:14:00,
2013-01-16 04:15:00,58.5,54.6,29.71,SSE,158,19.6,19.6,87,0.00,CLR,,0.00,WeatherDisplay:10.37,2013-01-16 02:15:00,
2013-01-16 04:19:00,58.6,54.1,29.71,NE,45,12.7,12.7,85,0.00,CLR,,0.00,WeatherDisplay:10.37,2013-01-16 02:19:00,
2013-01-16 04:20:00,58.6,53.8,29.71,SSE,158,12.7,12.7,84,0.00,CLR,,0.00,WeatherDisplay:10.37,2013-01-16 02:20:00,
2013-01-16 04:24:00,58.6,53.8,29.71,SSE,158,8.1,8.1,84,0.00,CLR,,0.00,WeatherDisplay:10.37,2013-01-16 02:24:00,
2013-01-16 04:25:00,58.6,53.8,29.71,SSE,158,10.5,10.5,84,0.00,CLR,,0.00,WeatherDisplay:10.37,2013-01-16 02:25:00,
2013-01-16 04:29:00,58.6,53.2,29.71,SSE,158,12.8,12.8,82,0.00,CLR,,0.00,WeatherDisplay:10.37,2013-01-16 02:29:00,
2013-01-16 04:30:00,58.6,53.2,29.71,SSE,158,12.7,12.7,82,0.00,CLR,,0.00,WeatherDisplay:10.37,2013-01-16 02:30:00,
2013-01-16 04:34:00,58.8,53.3,29.68,SE,135,15.0,15.0,82,0.00,CLR,,0.00,WeatherDisplay:10.37,2013-01-16 02:34:00,
2013-01-16 04:35:00,58.8,53.3,29.68,SSE,158,20.7,20.7,82,0.00,CLR,,0.00,WeatherDisplay:10.37,2013-01-16 02:35:00,
2013-01-16 04:39:00,58.8,52.7,29.68,ENE,68,6.9,6.9,80,0.00,CLR,,0.00,WeatherDisplay:10.37,2013-01-16 02:39:00,
2013-01-16 04:40:00,58.8,52.7,29.68,SSE,158,9.2,9.2,80,0.00,CLR,,0.00,WeatherDisplay:10.37,2013-01-16 02:40:00,
2013-01-16 04:41:00,58.6,52.5,29.68,SSE,158,9.2,9.2,80,0.00,CLR,,0.00,WeatherDisplay:10.37,2013-01-16 02:41:00,
2013-01-16 04:44:00,58.6,52.1,29.68,SE,135,9.2,9.2,79,0.00,CLR,,0.00,WeatherDisplay:10.37,2013-01-16 02:44:00,
2013-01-16 04:45:00,58.6,52.1,29.68,SSE,158,13.0,13.0,79,0.00,CLR,,0.00,WeatherDisplay:10.37,2013-01-16 02:45:00,
2013-01-16 04:46:00,58.6,52.1,29.68,ENE,68,12.7,12.7,79,0.00,CLR,,0.00,WeatherDisplay:10.37,2013-01-16 02:46:00,
2013-01-16 04:49:00,58.6,51.4,29.68,SSE,158,16.1,16.1,77,0.00,CLR,,0.00,WeatherDisplay:10.37,2013-01-16 02:49:00,
2013-01-16 04:50:00,58.6,51.4,29.68,SSE,158,27.3,27.3,77,0.00,CLR,,0.00,WeatherDisplay:10.37,2013-01-16 02:50:00,
2013-01-16 04:51:00,58.6,50.4,29.68,SSE,158,27.6,27.6,74,0.00,CLR,,0.00,WeatherDisplay:10.37,2013-01-16 02:51:00,
2013-01-16 04:54:00,58.8,50.5,29.68,SE,135,25.3,25.3,74,0.00,CLR,,0.00,WeatherDisplay:10.37,2013-01-16 02:54:00,
2013-01-16 04:55:00,58.8,50.5,29.68,SE,135,15.2,15.2,74,0.00,CLR,,0.00,WeatherDisplay:10.37,2013-01-16 02:55:00,
2013-01-16 04:56:00,58.8,50.5,29.68,SE,135,19.6,19.6,74,0.00,CLR,,0.00,WeatherDisplay:10.37,2013-01-16 02:56:00,
2013-01-16 04:59:00,58.8,50.5,29.68,ESE,112,12.7,12.7,74,0.00,CLR,,0.00,WeatherDisplay:10.37,2013-01-16 02:59:00,
2013-01-16 05:00:00,58.8,50.5,29.68,ESE,112,12.7,12.7,74,0.00,CLR,,0.00,WeatherDisplay:10.37,2013-01-16 03:00:00,
2013-01-16 05:01:00,58.8,50.5,29.68,SSW,202,10.4,10.4,74,0.00,CLR,,0.00,WeatherDisplay:10.37,2013-01-16 03:01:00,
2013-01-16 05:05:00,58.8,50.2,29.65,SSE,158,26.5,26.5,73,0.00,CLR,,0.00,WeatherDisplay:10.37,2013-01-16 03:05:00,
2013-01-16 05:06:00,59.0,50.4,29.65,South,180,12.7,12.7,73,0.00,CLR,,0.00,WeatherDisplay:10.37,2013-01-16 03:06:00,
2013-01-16 05:10:00,59.0,50.0,29.65,South,180,21.9,21.9,72,0.00,CLR,,0.00,WeatherDisplay:10.37,2013-01-16 03:10:00,
2013-01-16 05:11:00,59.0,50.4,29.65,SSE,158,20.7,20.7,73,0.00,CLR,,0.00,WeatherDisplay:10.37,2013-01-16 03:11:00,
2013-01-16 05:12:00,59.0,50.4,29.65,SSE,158,20.7,20.7,73,0.00,CLR,,0.00,WeatherDisplay:10.37,2013-01-16 03:12:00,
2013-01-16 05:15:00,59.0,50.7,29.65,SSE,158,23.0,23.0,74,0.00,CLR,,0.00,WeatherDisplay:10.37,2013-01-16 03:15:00,
2013-01-16 05:16:00,59.2,50.9,29.65,SSE,158,24.2,24.2,74,0.00,CLR,,0.00,WeatherDisplay:10.37,2013-01-16 03:16:00,
2013-01-16 05:17:00,59.0,50.7,29.68,SSE,158,9.2,9.2,74,0.00,CLR,,0.00,WeatherDisplay:10.37,2013-01-16 03:17:00,
2013-01-16 05:20:00,59.0,50.7,29.68,SSE,158,10.4,10.4,74,0.00,CLR,,0.00,WeatherDisplay:10.37,2013-01-16 03:20:00,
2013-01-16 05:21:00,59.0,50.7,29.68,SSE,158,10.4,10.4,74,0.00,CLR,,0.00,WeatherDisplay:10.37,2013-01-16 03:21:00,
2013-01-16 05:22:00,59.0,50.7,29.68,South,180,21.9,21.9,74,0.00,CLR,,0.00,WeatherDisplay:10.37,2013-01-16 03:22:00,
2013-01-16 05:25:00,59.0,50.7,29.68,SSE,158,12.7,12.7,74,0.00,CLR,,0.00,WeatherDisplay:10.37,2013-01-16 03:25:00,
2013-01-16 05:26:00,59.0,50.7,29.68,NNE,22,12.7,12.7,74,0.00,CLR,,0.00,WeatherDisplay:10.37,2013-01-16 03:26:00,
2013-01-16 05:27:00,59.0,50.7,29.68,ESE,112,15.0,15.0,74,0.00,CLR,,0.00,WeatherDisplay:10.37,2013-01-16 03:27:00,
2013-01-16 05:30:00,59.0,50.7,29.68,SSE,158,18.7,18.7,74,0.00,CLR,,0.00,WeatherDisplay:10.37,2013-01-16 03:30:00,
2013-01-16 05:31:00,59.0,50.7,29.68,SE,135,18.4,18.4,74,0.00,CLR,,0.00,WeatherDisplay:10.37,2013-01-16 03:31:00,
2013-01-16 05:32:00,59.0,50.7,29.68,SSW,202,18.4,18.4,74,0.00,CLR,,0.00,WeatherDisplay:10.37,2013-01-16 03:32:00,
2013-01-16 05:35:00,59.0,51.1,29.68,SSE,158,21.9,21.9,75,0.00,CLR,,0.00,WeatherDisplay:10.37,2013-01-16 03:35:00,
2013-01-16 05:36:00,59.0,51.1,29.68,SSE,158,21.9,21.9,75,0.00,CLR,,0.00,WeatherDisplay:10.37,2013-01-16 03:36:00,
2013-01-16 05:37:00,59.0,50.7,29.68,SSE,158,21.9,21.9,74,0.00,CLR,,0.00,WeatherDisplay:10.37,2013-01-16 03:37:00,
2013-01-16 05:40:00,59.0,51.1,29.68,SSE,158,21.9,21.9,75,0.00,CLR,,0.00,WeatherDisplay:10.37,2013-01-16 03:40:00,
2013-01-16 05:41:00,59.0,51.1,29.68,SSE,158,22.5,22.5,75,0.00,CLR,,0.00,WeatherDisplay:10.37,2013-01-16 03:41:00,
2013-01-16 05:42:00,59.0,51.4,29.68,SSE,158,23.0,23.0,76,0.00,CLR,,0.00,WeatherDisplay:10.37,2013-01-16 03:42:00,
2013-01-16 05:45:00,59.0,51.4,29.68,ESE,112,20.7,20.7,76,0.00,CLR,,0.00,WeatherDisplay:10.37,2013-01-16 03:45:00,
2013-01-16 05:46:00,59.0,51.4,29.68,South,180,20.7,20.7,76,0.00,CLR,,0.00,WeatherDisplay:10.37,2013-01-16 03:46:00,
2013-01-16 05:47:00,59.0,51.4,29.71,SSW,202,17.6,17.6,76,0.00,CLR,,0.00,WeatherDisplay:10.37,2013-01-16 03:47:00,
2013-01-16 05:48:00,59.0,51.8,29.71,SE,135,17.3,17.3,77,0.00,CLR,,0.00,WeatherDisplay:10.37,2013-01-16 03:48:00,
2013-01-16 05:51:00,59.0,51.8,29.71,SSE,158,15.0,15.0,77,0.00,CLR,,0.00,WeatherDisplay:10.37,2013-01-16 03:51:00,
2013-01-16 05:52:00,59.0,51.8,29.71,WSW,248,19.6,19.6,77,0.00,CLR,,0.00,WeatherDisplay:10.37,2013-01-16 03:52:00,
2013-01-16 05:53:00,59.0,51.8,29.71,SE,135,24.2,24.2,77,0.00,CLR,,0.00,WeatherDisplay:10.37,2013-01-16 03:53:00,
2013-01-16 05:56:00,59.0,52.1,29.71,SSE,158,26.5,26.5,78,0.00,CLR,,0.00,WeatherDisplay:10.37,2013-01-16 03:56:00,
2013-01-16 05:57:00,59.2,52.3,29.71,South,180,26.5,26.5,78,0.00,CLR,,0.00,WeatherDisplay:10.37,2013-01-16 03:57:00,
2013-01-16 05:58:00,59.2,52.3,29.71,ENE,68,20.7,20.7,78,0.00,CLR,,0.00,WeatherDisplay:10.37,2013-01-16 03:58:00,
2013-01-16 06:01:00,59.0,51.8,29.71,SSE,158,12.7,12.7,77,0.00,CLR,,0.00,WeatherDisplay:10.37,2013-01-16 04:01:00,
2013-01-16 06:02:00,59.0,51.8,29.68,SE,135,31.1,31.1,77,0.00,CLR,,0.00,WeatherDisplay:10.37,2013-01-16 04:02:00,
2013-01-16 06:03:00,59.0,51.8,29.68,SSE,158,20.7,20.7,77,0.00,CLR,,0.00,WeatherDisplay:10.37,2013-01-16 04:03:00,
2013-01-16 06:06:00,59.0,52.1,29.68,SSE,158,13.8,13.8,78,0.00,CLR,,0.00,WeatherDisplay:10.37,2013-01-16 04:06:00,
2013-01-16 06:07:00,59.0,52.1,29.68,ESE,112,13.8,13.8,78,0.00,CLR,,0.00,WeatherDisplay:10.37,2013-01-16 04:07:00,
2013-01-16 06:08:00,59.0,52.1,29.68,SSW,202,16.8,16.8,78,0.00,CLR,,0.00,WeatherDisplay:10.37,2013-01-16 04:08:00,
2013-01-16 06:11:00,59.0,52.5,29.68,South,180,10.4,10.4,79,0.00,CLR,,0.00,WeatherDisplay:10.37,2013-01-16 04:11:00,
2013-01-16 06:12:00,59.0,52.5,29.68,SSE,158,14.7,14.7,79,0.00,CLR,,0.00,WeatherDisplay:10.37,2013-01-16 04:12:00,
2013-01-16 06:13:00,59.0,52.8,29.68,SSW,202,18.4,18.4,80,0.00,CLR,,0.00,WeatherDisplay:10.37,2013-01-16 04:13:00,
2013-01-16 06:16:00,59.0,52.8,29.68,SE,135,23.2,23.2,80,0.00,CLR,,0.00,WeatherDisplay:10.37,2013-01-16 04:16:00,
2013-01-16 06:17:00,59.0,52.8,29.68,SSW,202,23.0,23.0,80,0.00,CLR,,0.00,WeatherDisplay:10.37,2013-01-16 04:17:00,
2013-01-16 06:18:00,59.0,53.2,29.68,South,180,21.9,21.9,81,0.00,CLR,,0.00,WeatherDisplay:10.37,2013-01-16 04:18:00,
2013-01-16 06:22:00,59.0,53.2,29.68,SSE,158,17.3,17.3,81,0.00,CLR,,0.00,WeatherDisplay:10.37,2013-01-16 04:22:00,
2013-01-16 06:23:00,59.0,53.5,29.68,SSE,158,17.3,17.3,82,0.00,CLR,,0.00,WeatherDisplay:10.37,2013-01-16 04:23:00,
2013-01-16 06:27:00,59.0,53.5,29.68,SSW,202,11.5,11.5,82,0.00,CLR,,0.00,WeatherDisplay:10.37,2013-01-16 04:27:00,
2013-01-16 06:28:00,59.0,53.5,29.68,SSW,202,11.5,11.5,82,0.00,CLR,,0.00,WeatherDisplay:10.37,2013-01-16 04:28:00,
2013-01-16 06:32:00,59.0,53.5,29.68,South,180,27.6,27.6,82,0.00,CLR,,0.00,WeatherDisplay:10.37,2013-01-16 04:32:00,
2013-01-16 06:33:00,59.2,54.0,29.68,SE,135,21.9,21.9,83,0.00,CLR,,0.00,WeatherDisplay:10.37,2013-01-16 04:33:00,
2013-01-16 06:34:00,59.2,53.7,29.68,ESE,112,21.9,21.9,82,0.00,CLR,,0.00,WeatherDisplay:10.37,2013-01-16 04:34:00,
2013-01-16 06:37:00,59.2,53.7,29.68,SSW,202,31.1,31.1,82,0.00,CLR,,0.00,WeatherDisplay:10.37,2013-01-16 04:37:00,
2013-01-16 06:38:00,59.2,53.7,29.68,ESE,112,17.3,17.3,82,0.00,CLR,,0.00,WeatherDisplay:10.37,2013-01-16 04:38:00,
2013-01-16 06:39:00,59.2,53.7,29.68,SSW,202,17.3,17.3,82,0.00,CLR,,0.00,WeatherDisplay:10.37,2013-01-16 04:39:00,
2013-01-16 06:42:00,59.2,53.4,29.68,SSE,158,21.9,21.9,81,0.00,CLR,,0.00,WeatherDisplay:10.37,2013-01-16 04:42:00,
2013-01-16 06:43:00,59.2,53.4,29.68,WSW,248,21.9,21.9,81,0.00,CLR,,0.00,WeatherDisplay:10.37,2013-01-16 04:43:00,
2013-01-16 06:44:00,59.2,53.4,29.68,SSE,158,23.0,23.0,81,0.00,CLR,,0.00,WeatherDisplay:10.37,2013-01-16 04:44:00,
2013-01-16 06:47:00,59.2,53.4,29.68,SE,135,16.3,16.3,81,0.00,CLR,,0.00,WeatherDisplay:10.37,2013-01-16 04:47:00,
2013-01-16 06:48:00,59.2,53.7,29.68,SSE,158,23.7,23.7,82,0.00,CLR,,0.00,WeatherDisplay:10.37,2013-01-16 04:48:00,
2013-01-16 06:49:00,59.2,53.4,29.68,SSE,158,24.2,24.2,81,0.00,CLR,,0.00,WeatherDisplay:10.37,2013-01-16 04:49:00,
2013-01-16 06:52:00,59.4,53.5,29.68,SSE,158,15.0,15.0,81,0.00,CLR,,0.00,WeatherDisplay:10.37,2013-01-16 04:52:00,
2013-01-16 06:53:00,59.4,53.5,29.68,South,180,13.8,13.8,81,0.00,CLR,,0.00,WeatherDisplay:10.37,2013-01-16 04:53:00,
2013-01-16 06:54:00,59.4,53.5,29.68,SSE,158,23.0,23.0,81,0.00,CLR,,0.00,WeatherDisplay:10.37,2013-01-16 04:54:00,
2013-01-16 06:57:00,59.4,53.5,29.68,SSW,202,21.9,21.9,81,0.00,CLR,,0.00,WeatherDisplay:10.37,2013-01-16 04:57:00,
2013-01-16 06:58:00,59.4,53.5,29.68,ESE,112,19.6,19.6,81,0.00,CLR,,0.00,WeatherDisplay:10.37,2013-01-16 04:58:00,
2013-01-16 06:59:00,59.5,53.7,29.68,SSE,158,24.2,24.2,81,0.00,CLR,,0.00,WeatherDisplay:10.37,2013-01-16 04:59:00,
2013-01-16 07:00:00,59.5,53.6,29.68,SSE,161,17.0,25.0,81,0.00,CLR,,0.00,WeatherDisplay:10.37,2013-01-16 05:00:00,
2013-01-16 07:02:00,59.5,53.7,29.68,SSE,158,19.6,19.6,81,0.00,CLR,,0.00,WeatherDisplay:10.37,2013-01-16 05:02:00,
2013-01-16 07:03:00,59.5,53.7,29.68,SSW,202,32.2,32.2,81,0.00,CLR,,0.00,WeatherDisplay:10.37,2013-01-16 05:03:00,
2013-01-16 07:05:00,59.5,53.7,29.68,SSW,202,13.8,13.8,81,0.00,CLR,,0.00,WeatherDisplay:10.37,2013-01-16 05:05:00,
2013-01-16 07:07:00,59.5,53.7,29.68,SSW,202,28.9,28.9,81,0.00,CLR,,0.00,WeatherDisplay:10.37,2013-01-16 05:07:00,
2013-01-16 07:08:00,59.5,53.7,29.68,SSW,202,28.8,28.8,81,0.00,CLR,,0.00,WeatherDisplay:10.37,2013-01-16 05:08:00,
2013-01-16 07:10:00,59.5,53.7,29.68,SSE,158,17.3,17.3,81,0.00,CLR,,0.00,WeatherDisplay:10.37,2013-01-16 05:10:00,
2013-01-16 07:12:00,59.5,54.0,29.68,SSE,158,33.9,33.9,82,0.00,CLR,,0.00,WeatherDisplay:10.37,2013-01-16 05:12:00,
2013-01-16 07:13:00,59.5,53.7,29.68,South,180,34.5,34.5,81,0.00,CLR,,0.00,WeatherDisplay:10.37,2013-01-16 05:13:00,
2013-01-16 07:15:00,59.5,53.7,29.68,SSE,158,25.3,25.3,81,0.00,CLR,,0.00,WeatherDisplay:10.37,2013-01-16 05:15:00,
2013-01-16 07:18:00,59.5,53.7,29.68,SSE,158,23.0,23.0,81,0.00,CLR,,0.00,WeatherDisplay:10.37,2013-01-16 05:18:00,
2013-01-16 07:20:00,59.5,53.7,29.68,SSE,158,24.2,24.2,81,0.00,CLR,,0.00,WeatherDisplay:10.37,2013-01-16 05:20:00,
2013-01-16 07:23:00,59.5,54.0,29.68,SE,135,24.2,24.2,82,0.00,CLR,,0.00,WeatherDisplay:10.37,2013-01-16 05:23:00,
2013-01-16 07:24:00,59.5,54.0,29.68,SSE,158,12.7,12.7,82,0.00,CLR,,0.00,WeatherDisplay:10.37,2013-01-16 05:24:00,
2013-01-16 07:25:00,59.5,54.0,29.68,South,180,23.0,23.0,82,0.00,CLR,,0.00,WeatherDisplay:10.37,2013-01-16 05:25:00,
2013-01-16 07:28:00,59.5,54.4,29.68,SW,225,10.4,10.4,83,0.00,CLR,,0.00,WeatherDisplay:10.37,2013-01-16 05:28:00,
2013-01-16 07:29:00,59.5,54.4,29.68,SSW,202,15.0,15.0,83,0.00,CLR,,0.00,WeatherDisplay:10.37,2013-01-16 05:29:00,
2013-01-16 07:30:00,59.5,54.4,29.68,SSE,158,20.4,20.4,83,0.00,CLR,,0.00,WeatherDisplay:10.37,2013-01-16 05:30:00,
2013-01-16 07:33:00,59.5,54.4,29.65,SSE,158,24.2,24.2,83,0.00,CLR,,0.00,WeatherDisplay:10.37,2013-01-16 05:33:00,
2013-01-16 07:34:00,59.5,54.4,29.65,SE,135,23.0,23.0,83,0.00,CLR,,0.00,WeatherDisplay:10.37,2013-01-16 05:34:00,
2013-01-16 07:35:00,59.5,54.4,29.65,SSE,158,16.1,16.1,83,0.00,CLR,,0.00,WeatherDisplay:10.37,2013-01-16 05:35:00,
2013-01-16 07:38:00,59.5,54.4,29.65,SSE,158,13.8,13.8,83,0.00,CLR,,0.00,WeatherDisplay:10.37,2013-01-16 05:38:00,
2013-01-16 07:39:00,59.4,54.2,29.65,SE,135,23.0,23.0,83,0.00,CLR,,0.00,WeatherDisplay:10.37,2013-01-16 05:39:00,
2013-01-16 07:41:00,59.4,54.2,29.65,SE,135,19.6,19.6,83,0.00,CLR,,0.00,WeatherDisplay:10.37,2013-01-16 05:41:00,
2013-01-16 07:43:00,59.4,54.2,29.65,SSE,158,19.6,19.6,83,0.00,CLR,,0.00,WeatherDisplay:10.37,2013-01-16 05:43:00,
2013-01-16 07:44:00,59.4,54.2,29.65,SSE,158,18.4,18.4,83,0.00,CLR,,0.00,WeatherDisplay:10.37,2013-01-16 05:44:00,
2013-01-16 07:45:00,59.5,54.4,29.65,SSW,202,18.4,18.4,83,0.00,CLR,,0.00,WeatherDisplay:10.37,2013-01-16 05:45:00,
2013-01-16 07:46:00,59.5,54.4,29.65,SW,225,27.6,27.6,83,0.00,CLR,,0.00,WeatherDisplay:10.37,2013-01-16 05:46:00,
2013-01-16 07:48:00,59.5,54.4,29.65,SE,135,18.4,18.4,83,0.00,CLR,,0.00,WeatherDisplay:10.37,2013-01-16 05:48:00,
2013-01-16 07:49:00,59.5,54.4,29.65,SSE,158,17.3,17.3,83,0.00,CLR,,0.00,WeatherDisplay:10.37,2013-01-16 05:49:00,
2013-01-16 07:50:00,59.5,54.4,29.65,SSE,158,15.0,15.0,83,0.00,CLR,,0.00,WeatherDisplay:10.37,2013-01-16 05:50:00,
2013-01-16 07:51:00,59.7,54.5,29.65,South,180,17.3,17.3,83,0.00,CLR,,0.00,WeatherDisplay:10.37,2013-01-16 05:51:00,
2013-01-16 07:53:00,59.7,54.5,29.65,SSE,158,11.5,11.5,83,0.00,CLR,,0.00,WeatherDisplay:10.37,2013-01-16 05:53:00,
2013-01-16 07:54:00,59.7,54.5,29.65,SSE,158,24.2,24.2,83,0.00,CLR,,0.00,WeatherDisplay:10.37,2013-01-16 05:54:00,
2013-01-16 07:55:00,59.7,54.9,29.65,South,180,24.2,24.2,84,0.00,CLR,,0.00,WeatherDisplay:10.37,2013-01-16 05:55:00,
2013-01-16 07:56:00,59.7,54.5,29.65,SSW,202,17.3,17.3,83,0.00,CLR,,0.00,WeatherDisplay:10.37,2013-01-16 05:56:00,
2013-01-16 07:59:00,59.7,54.5,29.65,SSE,158,21.9,21.9,83,0.00,CLR,,0.00,WeatherDisplay:10.37,2013-01-16 05:59:00,
2013-01-16 08:00:00,59.7,54.5,29.65,SSE,158,16.1,16.1,83,0.00,CLR,,0.00,WeatherDisplay:10.37,2013-01-16 06:00:00,
2013-01-16 08:01:00,59.7,54.9,29.65,SSE,158,18.4,18.4,84,0.00,CLR,,0.00,WeatherDisplay:10.37,2013-01-16 06:01:00,
2013-01-16 08:04:00,59.7,54.5,29.65,SSE,158,25.3,25.3,83,0.00,CLR,,0.00,WeatherDisplay:10.37,2013-01-16 06:04:00,
2013-01-16 08:05:00,59.7,54.5,29.65,SSE,158,28.9,28.9,83,0.00,CLR,,0.00,WeatherDisplay:10.37,2013-01-16 06:05:00,
2013-01-16 08:06:00,59.9,54.7,29.65,SSE,158,28.8,28.8,83,0.00,CLR,,0.00,WeatherDisplay:10.37,2013-01-16 06:06:00,
2013-01-16 08:09:00,59.9,54.7,29.65,SSW,202,23.0,23.0,83,0.00,CLR,,0.00,WeatherDisplay:10.37,2013-01-16 06:09:00,
2013-01-16 08:10:00,59.9,54.7,29.65,SSW,202,17.3,17.3,83,0.00,CLR,,0.00,WeatherDisplay:10.37,2013-01-16 06:10:00,
2013-01-16 08:11:00,59.9,54.4,29.65,SSE,158,19.0,19.0,82,0.00,CLR,,0.00,WeatherDisplay:10.37,2013-01-16 06:11:00,
2013-01-16 08:14:00,59.9,54.1,29.65,SSE,158,29.9,29.9,81,0.00,CLR,,0.00,WeatherDisplay:10.37,2013-01-16 06:14:00,
2013-01-16 08:15:00,60.1,54.2,29.65,SSW,202,29.9,29.9,81,0.00,CLR,,0.00,WeatherDisplay:10.37,2013-01-16 06:15:00,
2013-01-16 08:16:00,60.1,54.2,29.65,SSE,158,23.0,23.0,81,0.00,CLR,,0.00,WeatherDisplay:10.37,2013-01-16 06:16:00,
2013-01-16 08:19:00,60.1,54.2,29.65,SSE,158,21.5,21.5,81,0.00,CLR,,0.00,WeatherDisplay:10.37,2013-01-16 06:19:00,
2013-01-16 08:21:00,60.1,54.6,29.65,South,180,21.9,21.9,82,0.00,CLR,,0.00,WeatherDisplay:10.37,2013-01-16 06:21:00,
2013-01-16 08:22:00,60.1,54.6,29.65,ESE,112,11.5,11.5,82,0.00,CLR,,0.00,WeatherDisplay:10.37,2013-01-16 06:22:00,
2013-01-16 08:24:00,59.9,55.1,29.65,ESE,112,21.9,21.9,84,0.00,CLR,,0.00,WeatherDisplay:10.37,2013-01-16 06:24:00,
2013-01-16 08:25:00,59.9,55.1,29.65,SSE,151,8.0,22.0,84,0.00,CLR,,0.00,WeatherDisplay:10.37,2013-01-16 06:25:00,
2013-01-16 08:26:00,59.9,55.1,29.65,SSE,158,18.4,18.4,84,0.00,CLR,,0.00,WeatherDisplay:10.37,2013-01-16 06:26:00,
2013-01-16 08:27:00,59.9,55.1,29.65,ENE,68,15.2,15.2,84,0.00,CLR,,0.00,WeatherDisplay:10.37,2013-01-16 06:27:00,
2013-01-16 08:30:00,59.7,54.9,29.65,SSE,158,17.3,17.3,84,0.00,CLR,,0.00,WeatherDisplay:10.37,2013-01-16 06:30:00,
2013-01-16 08:31:00,59.7,54.9,29.65,SSE,158,11.5,11.5,84,0.00,CLR,,0.00,WeatherDisplay:10.37,2013-01-16 06:31:00,
2013-01-16 08:32:00,59.7,54.5,29.65,South,180,15.0,15.0,83,0.00,CLR,,0.00,WeatherDisplay:10.37,2013-01-16 06:32:00,
2013-01-16 08:35:00,59.7,54.2,29.65,SSE,149,9.0,23.0,82,0.00,CLR,,0.00,WeatherDisplay:10.37,2013-01-16 06:35:00,
2013-01-16 08:36:00,59.7,53.9,29.65,SSE,158,15.0,15.0,81,0.00,CLR,,0.00,WeatherDisplay:10.37,2013-01-16 06:36:00,
2013-01-16 08:37:00,59.7,53.9,29.65,SSW,202,10.4,10.4,81,0.00,CLR,,0.00,WeatherDisplay:10.37,2013-01-16 06:37:00,
2013-01-16 08:40:00,59.7,53.2,29.65,SSE,158,19.0,19.0,79,0.00,CLR,,0.00,WeatherDisplay:10.37,2013-01-16 06:40:00,
2013-01-16 08:41:00,59.7,53.2,29.65,SSE,158,10.2,10.2,79,0.00,CLR,,0.00,WeatherDisplay:10.37,2013-01-16 06:41:00,
2013-01-16 08:42:00,59.7,53.2,29.65,South,180,18.4,18.4,79,0.00,CLR,,0.00,WeatherDisplay:10.37,2013-01-16 06:42:00,
2013-01-16 08:45:00,59.7,53.5,29.65,ESE,112,17.3,17.3,80,0.00,CLR,,0.00,WeatherDisplay:10.37,2013-01-16 06:45:00,
2013-01-16 08:46:00,59.7,53.5,29.65,SE,135,15.0,15.0,80,0.00,CLR,,0.00,WeatherDisplay:10.37,2013-01-16 06:46:00,
2013-01-16 08:47:00,59.7,53.5,29.65,SSE,158,17.6,17.6,80,0.00,CLR,,0.00,WeatherDisplay:10.37,2013-01-16 06:47:00,
2013-01-16 08:48:00,59.9,53.7,29.65,SSE,158,22.3,22.3,80,0.00,CLR,,0.00,WeatherDisplay:10.37,2013-01-16 06:48:00,
2013-01-16 08:50:00,60.1,53.5,29.65,SSE,158,23.0,23.0,79,0.00,CLR,,0.00,WeatherDisplay:10.37,2013-01-16 06:50:00,
2013-01-16 08:51:00,60.1,53.5,29.65,SSE,158,25.3,25.3,79,0.00,CLR,,0.00,WeatherDisplay:10.37,2013-01-16 06:51:00,
2013-01-16 08:52:00,60.1,53.2,29.65,SSE,158,25.3,25.3,78,0.00,CLR,,0.00,WeatherDisplay:10.37,2013-01-16 06:52:00,
2013-01-16 08:53:00,60.1,53.2,29.65,South,180,25.3,25.3,78,0.00,CLR,,0.00,WeatherDisplay:10.37,2013-01-16 06:53:00,
2013-01-16 08:55:00,60.1,52.8,29.65,SSE,158,23.0,23.0,77,0.00,CLR,,0.00,WeatherDisplay:10.37,2013-01-16 06:55:00,
2013-01-16 08:56:00,60.1,52.8,29.65,SE,135,17.3,17.3,77,0.00,CLR,,0.00,WeatherDisplay:10.37,2013-01-16 06:56:00,
2013-01-16 08:57:00,60.1,52.8,29.65,ESE,112,16.1,16.1,77,0.00,CLR,,0.00,WeatherDisplay:10.37,2013-01-16 06:57:00,
2013-01-16 08:58:00,60.1,52.8,29.65,SSE,158,16.1,16.1,77,0.00,CLR,,0.00,WeatherDisplay:10.37,2013-01-16 06:58:00,
2013-01-16 09:01:00,60.1,52.8,29.65,SSE,158,17.3,17.3,77,0.00,CLR,,0.00,WeatherDisplay:10.37,2013-01-16 07:01:00,
2013-01-16 09:02:00,60.1,52.8,29.68,South,180,17.3,17.3,77,0.00,CLR,,0.00,WeatherDisplay:10.37,2013-01-16 07:02:00,
2013-01-16 09:03:00,60.1,52.8,29.68,SSE,158,20.7,20.7,77,0.00,CLR,,0.00,WeatherDisplay:10.37,2013-01-16 07:03:00,
2013-01-16 09:06:00,60.1,52.8,29.68,SW,225,12.7,12.7,77,0.00,CLR,,0.00,WeatherDisplay:10.37,2013-01-16 07:06:00,
2013-01-16 09:07:00,60.1,52.8,29.68,SE,135,13.8,13.8,77,0.00,CLR,,0.00,WeatherDisplay:10.37,2013-01-16 07:07:00,
2013-01-16 09:08:00,60.1,52.8,29.68,SE,135,16.6,16.6,77,0.00,CLR,,0.00,WeatherDisplay:10.37,2013-01-16 07:08:00,
2013-01-16 09:11:00,60.1,53.2,29.68,SSE,158,17.3,17.3,78,0.00,CLR,,0.00,WeatherDisplay:10.37,2013-01-16 07:11:00,
2013-01-16 09:12:00,60.1,53.2,29.68,SSE,158,16.1,16.1,78,0.00,CLR,,0.00,WeatherDisplay:10.37,2013-01-16 07:12:00,
2013-01-16 09:13:00,60.1,53.2,29.68,SSE,158,18.4,18.4,78,0.00,CLR,,0.00,WeatherDisplay:10.37,2013-01-16 07:13:00,
2013-01-16 09:16:00,60.1,53.5,29.68,South,180,15.0,15.0,79,0.00,CLR,,0.00,WeatherDisplay:10.37,2013-01-16 07:16:00,
2013-01-16 09:17:00,60.1,53.5,29.68,SSE,158,25.3,25.3,79,0.00,CLR,,0.00,WeatherDisplay:10.37,2013-01-16 07:17:00,
2013-01-16 09:18:00,60.1,53.2,29.68,SSW,202,25.3,25.3,78,0.00,CLR,,0.00,WeatherDisplay:10.37,2013-01-16 07:18:00,
2013-01-16 09:21:00,60.1,53.2,29.68,SSE,158,12.7,12.7,78,0.00,CLR,,0.00,WeatherDisplay:10.37,2013-01-16 07:21:00,
2013-01-16 09:22:00,60.1,53.5,29.68,SSE,158,11.5,11.5,79,0.00,CLR,,0.00,WeatherDisplay:10.37,2013-01-16 07:22:00,
2013-01-16 09:23:00,60.1,53.5,29.68,South,180,8.7,8.7,79,0.00,CLR,,0.00,WeatherDisplay:10.37,2013-01-16 07:23:00,
2013-01-16 09:24:00,60.1,53.5,29.68,SSW,202,8.1,8.1,79,0.00,CLR,,0.00,WeatherDisplay:10.37,2013-01-16 07:24:00,
2013-01-16 09:26:00,60.1,53.9,29.68,South,180,8.1,8.1,80,0.00,CLR,,0.00,WeatherDisplay:10.37,2013-01-16 07:26:00,
2013-01-16 09:28:00,60.1,54.2,29.68,WSW,248,6.0,6.0,81,0.00,CLR,,0.00,WeatherDisplay:10.37,2013-01-16 07:28:00,
2013-01-16 09:29:00,60.1,54.2,29.68,SW,225,5.8,5.9,81,0.00,CLR,,0.00,WeatherDisplay:10.37,2013-01-16 07:29:00,
2013-01-16 09:31:00,59.9,54.1,29.68,WSW,248,11.5,11.5,81,0.00,CLR,,0.00,WeatherDisplay:10.37,2013-01-16 07:31:00,
2013-01-16 09:34:00,59.4,53.5,29.68,SW,225,8.1,8.1,81,0.00,CLR,,0.00,WeatherDisplay:10.37,2013-01-16 07:34:00,
2013-01-16 09:36:00,58.3,51.4,29.68,WSW,248,5.8,5.8,78,0.00,CLR,,0.00,WeatherDisplay:10.37,2013-01-16 07:36:00,
2013-01-16 09:39:00,57.6,50.8,29.68,WSW,248,10.4,10.4,78,0.00,CLR,,0.00,WeatherDisplay:10.37,2013-01-16 07:39:00,
2013-01-16 09:42:00,56.5,50.4,29.68,WSW,248,8.1,8.1,80,0.00,CLR,,0.00,WeatherDisplay:10.37,2013-01-16 07:42:00,
2013-01-16 09:44:00,56.3,50.2,29.68,WSW,248,3.5,3.5,80,0.00,CLR,,0.00,WeatherDisplay:10.37,2013-01-16 07:44:00,
2013-01-16 09:47:00,55.9,50.2,29.68,WSW,248,8.1,8.1,81,0.00,CLR,,0.00,WeatherDisplay:10.37,2013-01-16 07:47:00,
2013-01-16 09:49:00,55.4,50.3,29.68,WSW,248,6.9,6.9,83,0.00,CLR,,0.00,WeatherDisplay:10.37,2013-01-16 07:49:00,
2013-01-16 09:50:00,55.4,50.3,29.68,SSW,202,8.1,8.1,83,0.00,CLR,,0.00,WeatherDisplay:10.37,2013-01-16 07:50:00,
2013-01-16 09:52:00,55.2,50.5,29.68,WSW,248,10.4,10.4,84,0.00,CLR,,0.00,WeatherDisplay:10.37,2013-01-16 07:52:00,
2013-01-16 09:54:00,55.0,50.6,29.68,WSW,248,6.9,6.9,85,0.00,CLR,,0.00,WeatherDisplay:10.37,2013-01-16 07:54:00,
2013-01-16 09:55:00,54.9,50.8,29.68,West,270,8.1,8.1,86,0.00,CLR,,0.00,WeatherDisplay:10.37,2013-01-16 07:55:00,
2013-01-16 09:57:00,54.9,50.8,29.68,SW,225,9.4,9.4,86,0.00,CLR,,0.00,WeatherDisplay:10.37,2013-01-16 07:57:00,
2013-01-16 09:59:00,54.5,50.7,29.68,WNW,292,5.8,5.8,87,0.00,CLR,,0.00,WeatherDisplay:10.37,2013-01-16 07:59:00,
2013-01-16 10:00:00,54.5,50.7,29.68,SSW,202,4.6,4.6,87,0.00,CLR,,0.00,WeatherDisplay:10.37,2013-01-16 08:00:00,
2013-01-16 10:02:00,54.5,51.0,29.68,SSE,158,4.6,4.6,88,0.00,CLR,,0.00,WeatherDisplay:10.37,2013-01-16 08:02:00,
2013-01-16 10:04:00,54.5,51.0,29.68,NNW,338,4.6,4.6,88,0.00,CLR,,0.00,WeatherDisplay:10.37,2013-01-16 08:04:00,
2013-01-16 10:06:00,54.5,51.0,29.68,NNW,338,3.5,3.5,88,0.00,CLR,,0.00,WeatherDisplay:10.37,2013-01-16 08:06:00,
2013-01-16 10:07:00,54.3,50.8,29.68,NNW,338,1.4,0.0,88,0.00,CLR,,0.00,WeatherDisplay:10.37,2013-01-16 08:07:00,
2013-01-16 10:09:00,54.3,50.8,29.68,East,90,4.6,4.6,88,0.00,CLR,,0.00,WeatherDisplay:10.37,2013-01-16 08:09:00,
2013-01-16 10:11:00,54.1,51.6,29.68,SE,135,5.8,5.8,91,0.00,CLR,,0.00,WeatherDisplay:10.37,2013-01-16 08:11:00,
2013-01-16 10:12:00,54.1,51.3,29.68,WSW,248,2.4,2.4,90,0.00,CLR,,0.00,WeatherDisplay:10.37,2013-01-16 08:12:00,
2013-01-16 10:14:00,53.8,50.9,29.68,SSW,202,2.3,2.3,90,0.00,CLR,,0.00,WeatherDisplay:10.37,2013-01-16 08:14:00,
2013-01-16 10:16:00,53.6,51.6,29.68,SSW,202,8.1,8.1,93,0.00,CLR,,0.00,WeatherDisplay:10.37,2013-01-16 08:16:00,
2013-01-16 10:17:00,53.4,52.0,29.68,WSW,248,8.1,8.1,95,0.00,CLR,,0.00,WeatherDisplay:10.37,2013-01-16 08:17:00,
2013-01-16 10:19:00,53.4,52.0,29.68,West,270,4.6,5.9,95,0.00,CLR,,0.00,WeatherDisplay:10.37,2013-01-16 08:19:00,
2013-01-16 10:21:00,53.1,52.2,29.68,SW,225,9.2,9.2,97,0.04,RA,,0.04,WeatherDisplay:10.37,2013-01-16 08:21:00,
2013-01-16 10:23:00,53.1,52.5,29.68,SSW,202,9.2,9.2,98,0.04,RA,,0.04,WeatherDisplay:10.37,2013-01-16 08:23:00,
2013-01-16 10:24:00,52.9,52.3,29.68,SSW,202,6.2,6.2,98,0.04,RA,,0.04,WeatherDisplay:10.37,2013-01-16 08:24:00,
2013-01-16 10:26:00,52.9,52.6,29.68,SW,225,9.2,9.2,99,0.04,RA,,0.04,WeatherDisplay:10.37,2013-01-16 08:26:00,
2013-01-16 10:28:00,52.7,52.7,29.68,WSW,248,6.9,6.9,100,0.04,RA,,0.04,WeatherDisplay:10.37,2013-01-16 08:28:00,
2013-01-16 10:30:00,52.7,52.7,29.68,SSW,202,6.9,6.9,100,0.08,RA,,0.08,WeatherDisplay:10.37,2013-01-16 08:30:00,
2013-01-16 10:31:00,52.7,52.7,29.68,South,180,5.4,5.4,100,0.08,RA,,0.08,WeatherDisplay:10.37,2013-01-16 08:31:00,
2013-01-16 10:33:00,52.3,52.3,29.68,South,180,6.9,6.9,100,0.13,RA,,0.13,WeatherDisplay:10.37,2013-01-16 08:33:00,
2013-01-16 10:35:00,52.3,52.3,29.68,WSW,248,8.1,8.1,100,0.16,RA,,0.16,WeatherDisplay:10.37,2013-01-16 08:35:00,
2013-01-16 10:36:00,52.3,52.3,29.68,SSW,202,9.2,9.2,100,0.16,RA,,0.16,WeatherDisplay:10.37,2013-01-16 08:36:00,
2013-01-16 10:38:00,51.6,51.6,29.68,SSW,202,3.5,3.5,100,0.21,RA,,0.21,WeatherDisplay:10.37,2013-01-16 08:38:00,
2013-01-16 10:40:00,51.6,51.6,29.68,SSE,158,5.8,5.8,100,0.21,RA,,0.25,WeatherDisplay:10.37,2013-01-16 08:40:00,
2013-01-16 10:41:00,51.6,51.6,29.68,South,180,2.4,2.4,100,0.25,RA,,0.25,WeatherDisplay:10.37,2013-01-16 08:41:00,
2013-01-16 10:43:00,51.6,51.6,29.68,WSW,248,5.8,5.8,100,0.25,RA,,0.25,WeatherDisplay:10.37,2013-01-16 08:43:00,
2013-01-16 10:45:00,51.6,51.6,29.68,West,270,8.1,8.1,100,0.30,RA,,0.30,WeatherDisplay:10.37,2013-01-16 08:45:00,
2013-01-16 10:46:00,51.4,51.4,29.68,WNW,292,8.1,8.1,100,0.30,RA,,0.30,WeatherDisplay:10.37,2013-01-16 08:46:00,
2013-01-16 10:48:00,51.3,51.3,29.68,WSW,248,3.6,3.6,100,0.33,RA,,0.33,WeatherDisplay:10.37,2013-01-16 08:48:00,
2013-01-16 10:50:00,51.3,51.3,29.68,SSW,202,5.8,5.8,100,0.33,RA,,0.33,WeatherDisplay:10.37,2013-01-16 08:50:00,
2013-01-16 10:51:00,51.3,51.3,29.68,SSW,202,2.4,3.6,100,0.37,RA,,0.37,WeatherDisplay:10.37,2013-01-16 08:51:00,
2013-01-16 10:53:00,51.3,51.3,29.68,SSW,202,3.5,3.5,100,0.37,RA,,0.41,WeatherDisplay:10.37,2013-01-16 08:53:00,
2013-01-16 10:55:00,51.1,51.1,29.68,SSW,202,1.1,1.6,100,0.41,RA,,0.41,WeatherDisplay:10.37,2013-01-16 08:55:00,
2013-01-16 10:56:00,51.1,51.1,29.68,SSW,202,3.5,3.5,100,0.41,RA,,0.41,WeatherDisplay:10.37,2013-01-16 08:56:00,
2013-01-16 10:59:00,51.1,51.1,29.68,SSW,202,2.3,2.3,100,0.41,RA,,0.46,WeatherDisplay:10.37,2013-01-16 08:59:00,
2013-01-16 11:00:00,51.3,51.3,29.68,South,180,3.5,3.5,100,0.46,RA,,0.46,WeatherDisplay:10.37,2013-01-16 09:00:00,
2013-01-16 11:01:00,51.3,51.3,29.68,South,180,3.5,3.5,100,0.46,RA,,0.46,WeatherDisplay:10.37,2013-01-16 09:01:00,
2013-01-16 11:04:00,51.1,51.1,29.68,SSE,158,3.8,3.8,100,0.46,RA,,0.46,WeatherDisplay:10.37,2013-01-16 09:04:00,
2013-01-16 11:05:00,51.1,51.1,29.68,SSE,158,4.6,4.6,100,0.46,RA,,0.50,WeatherDisplay:10.37,2013-01-16 09:05:00,
2013-01-16 11:06:00,51.1,51.1,29.68,SSE,158,4.6,4.6,100,0.50,RA,,0.50,WeatherDisplay:10.37,2013-01-16 09:06:00,
2013-01-16 11:09:00,51.1,51.1,29.68,SSE,158,4.6,4.6,100,0.50,RA,,0.50,WeatherDisplay:10.37,2013-01-16 09:09:00,
2013-01-16 11:10:00,51.3,51.3,29.68,SSE,158,4.6,4.6,100,0.50,RA,,0.50,WeatherDisplay:10.37,2013-01-16 09:10:00,
2013-01-16 11:11:00,51.3,51.3,29.68,SSE,158,4.6,4.6,100,0.50,RA,,0.50,WeatherDisplay:10.37,2013-01-16 09:11:00,
2013-01-16 11:12:00,51.3,51.3,29.68,SSE,158,3.5,3.5,100,0.50,RA,,0.50,WeatherDisplay:10.37,2013-01-16 09:12:00,
2013-01-16 11:14:00,51.3,51.3,29.68,SSE,158,3.5,0.0,100,0.50,RA,,0.50,WeatherDisplay:10.37,2013-01-16 09:14:00,
2013-01-16 11:15:00,51.4,51.4,29.68,SSE,158,0.0,0.0,100,0.50,RA,,0.50,WeatherDisplay:10.37,2013-01-16 09:15:00,
2013-01-16 11:16:00,51.4,51.4,29.68,SSE,158,0.0,0.0,100,0.50,,,0.50,WeatherDisplay:10.37,2013-01-16 09:16:00,
2013-01-16 11:17:00,51.4,51.4,29.68,SSE,158,0.0,0.0,100,0.50,,,0.50,WeatherDisplay:10.37,2013-01-16 09:17:00,
2013-01-16 11:19:00,51.4,51.4,29.68,ESE,112,3.5,3.5,100,0.50,CLR,,0.50,WeatherDisplay:10.37,2013-01-16 09:19:00,
2013-01-16 11:20:00,51.4,51.4,29.68,ESE,112,3.5,3.5,100,0.50,CLR,,0.50,WeatherDisplay:10.37,2013-01-16 09:20:00,
2013-01-16 11:21:00,51.4,51.4,29.68,SSE,158,2.4,2.4,100,0.46,CLR,,0.55,WeatherDisplay:10.37,2013-01-16 09:21:00,
2013-01-16 11:22:00,51.4,51.4,29.68,SSE,158,3.5,3.5,100,0.50,RA,,0.55,WeatherDisplay:10.37,2013-01-16 09:22:00,
2013-01-16 11:24:00,51.4,51.4,29.68,East,90,2.6,2.6,100,0.50,RA,,0.55,WeatherDisplay:10.37,2013-01-16 09:24:00,
2013-01-16 11:25:00,51.6,51.6,29.68,NE,45,3.1,3.1,100,0.50,RA,,0.55,WeatherDisplay:10.37,2013-01-16 09:25:00,
2013-01-16 11:27:00,51.6,51.6,29.68,ENE,68,4.6,4.6,100,0.50,RA,,0.55,WeatherDisplay:10.37,2013-01-16 09:27:00,
2013-01-16 11:29:00,51.6,51.6,29.68,ENE,68,2.6,2.6,100,0.46,RA,,0.55,WeatherDisplay:10.37,2013-01-16 09:29:00,
2013-01-16 11:31:00,51.6,51.6,29.68,East,90,2.4,2.4,100,0.46,RA,,0.55,WeatherDisplay:10.37,2013-01-16 09:31:00,
2013-01-16 11:32:00,51.6,51.6,29.65,East,90,2.3,2.3,100,0.46,RA,,0.55,WeatherDisplay:10.37,2013-01-16 09:32:00,
2013-01-16 11:34:00,51.6,51.6,29.65,SSE,158,3.5,3.5,100,0.41,,,0.55,WeatherDisplay:10.37,2013-01-16 09:34:00,
2013-01-16 11:36:00,51.6,51.6,29.65,SSE,158,3.5,3.5,100,0.39,CLR,,0.55,WeatherDisplay:10.37,2013-01-16 09:36:00,
2013-01-16 11:37:00,51.6,51.6,29.65,SSE,158,3.5,3.5,100,0.39,CLR,,0.55,WeatherDisplay:10.37,2013-01-16 09:37:00,
2013-01-16 11:40:00,51.6,51.6,29.65,SSE,158,5.8,5.8,100,0.33,CLR,,0.59,WeatherDisplay:10.37,2013-01-16 09:40:00,
2013-01-16 11:41:00,51.6,51.6,29.65,SSE,158,2.3,2.3,100,0.33,RA,,0.59,WeatherDisplay:10.37,2013-01-16 09:41:00,
2013-01-16 11:42:00,51.6,51.6,29.65,SSE,158,2.4,2.4,100,0.33,RA,,0.59,WeatherDisplay:10.37,2013-01-16 09:42:00,
2013-01-16 11:45:00,51.4,51.4,29.65,SSE,168,3.0,6.0,100,0.00,RA,,0.59,WeatherDisplay:10.37,2013-01-16 09:45:00,
2013-01-16 11:46:00,51.4,51.4,29.65,ESE,112,2.3,2.3,100,0.29,RA,,0.59,WeatherDisplay:10.37,2013-01-16 09:46:00,
2013-01-16 11:47:00,51.4,51.4,29.62,SSE,158,1.1,0.0,100,0.29,RA,,0.59,WeatherDisplay:10.37,2013-01-16 09:47:00,
2013-01-16 11:50:00,51.4,51.4,29.62,SSE,158,3.6,3.6,100,0.25,RA,,0.59,WeatherDisplay:10.37,2013-01-16 09:50:00,
2013-01-16 11:51:00,51.4,51.4,29.62,SSE,158,4.6,4.6,100,0.25,,,0.59,WeatherDisplay:10.37,2013-01-16 09:51:00,
2013-01-16 11:52:00,51.4,51.4,29.62,SSE,158,3.5,3.5,100,0.21,CLR,,0.63,WeatherDisplay:10.37,2013-01-16 09:52:00,
2013-01-16 11:55:00,51.4,51.4,29.62,East,90,2.6,2.6,100,0.21,RA,,0.63,WeatherDisplay:10.37,2013-01-16 09:55:00,
2013-01-16 11:56:00,51.4,51.4,29.62,ENE,68,4.6,4.6,100,0.21,RA,,0.63,WeatherDisplay:10.37,2013-01-16 09:56:00,
2013-01-16 11:57:00,51.4,51.4,29.62,ENE,68,5.9,5.9,100,0.21,RA,,0.63,WeatherDisplay:10.37,2013-01-16 09:57:00,
2013-01-16 11:58:00,51.4,51.4,29.62,ENE,68,5.8,5.8,100,0.21,RA,,0.63,WeatherDisplay:10.37,2013-01-16 09:58:00,
2013-01-16 12:00:00,51.4,51.4,29.62,SSE,158,5.8,5.8,100,0.16,RA,,0.63,WeatherDisplay:10.37,2013-01-16 10:00:00,
2013-01-16 12:02:00,51.4,51.4,29.62,East,90,3.5,3.5,100,0.16,RA,,0.63,WeatherDisplay:10.37,2013-01-16 10:02:00,
2013-01-16 12:03:00,51.4,51.4,29.62,ESE,112,2.3,2.3,100,0.16,RA,,0.63,WeatherDisplay:10.37,2013-01-16 10:03:00,
2013-01-16 12:05:00,51.4,51.4,29.62,East,90,2.4,2.4,100,0.16,CLR,,0.63,WeatherDisplay:10.37,2013-01-16 10:05:00,
2013-01-16 12:07:00,51.4,51.4,29.62,East,90,2.3,2.3,100,0.16,CLR,,0.63,WeatherDisplay:10.37,2013-01-16 10:07:00,
2013-01-16 12:08:00,51.4,51.4,29.62,East,90,4.3,4.3,100,0.12,CLR,,0.63,WeatherDisplay:10.37,2013-01-16 10:08:00,
2013-01-16 12:10:00,51.3,51.3,29.62,SSE,158,2.3,2.3,100,0.12,CLR,,0.63,WeatherDisplay:10.37,2013-01-16 10:10:00,
2013-01-16 12:12:00,51.3,51.3,29.62,SE,135,4.6,4.6,100,0.12,CLR,,0.63,WeatherDisplay:10.37,2013-01-16 10:12:00,
2013-01-16 12:13:00,51.3,51.3,29.62,SSE,158,4.9,4.9,100,0.12,CLR,,0.63,WeatherDisplay:10.37,2013-01-16 10:13:00,
2013-01-16 12:15:00,51.3,51.3,29.62,SE,135,4.6,4.6,100,0.12,CLR,,0.63,WeatherDisplay:10.37,2013-01-16 10:15:00,
2013-01-16 12:17:00,51.3,51.3,29.62,SE,135,3.5,3.5,100,0.12,CLR,,0.63,WeatherDisplay:10.37,2013-01-16 10:17:00,
2013-01-16 12:18:00,51.3,51.3,29.62,SE,135,3.5,3.5,100,0.12,CLR,,0.63,WeatherDisplay:10.37,2013-01-16 10:18:00,
2013-01-16 12:21:00,51.4,51.4,29.62,SE,135,4.6,4.6,100,0.12,CLR,,0.63,WeatherDisplay:10.37,2013-01-16 10:21:00,
2013-01-16 12:22:00,51.4,51.4,29.62,SSE,158,5.8,5.8,100,0.12,CLR,,0.63,WeatherDisplay:10.37,2013-01-16 10:22:00,
2013-01-16 12:23:00,51.6,51.6,29.62,SSE,158,9.2,9.2,100,0.08,CLR,,0.63,WeatherDisplay:10.37,2013-01-16 10:23:00,
2013-01-16 12:26:00,51.6,51.6,29.62,East,90,10.4,10.4,100,0.08,CLR,,0.63,WeatherDisplay:10.37,2013-01-16 10:26:00,
2013-01-16 12:27:00,51.6,51.6,29.62,SE,135,3.5,3.5,100,0.08,CLR,,0.63,WeatherDisplay:10.37,2013-01-16 10:27:00,
2013-01-16 12:28:00,51.6,51.6,29.62,SSE,158,3.5,0.0,100,0.08,CLR,,0.63,WeatherDisplay:10.37,2013-01-16 10:28:00,
2013-01-16 12:31:00,51.6,51.6,29.62,SSE,158,6.9,6.9,100,0.08,CLR,,0.63,WeatherDisplay:10.37,2013-01-16 10:31:00,
2013-01-16 12:32:00,51.6,51.6,29.59,SE,135,3.5,3.5,100,0.08,CLR,,0.63,WeatherDisplay:10.37,2013-01-16 10:32:00,
2013-01-16 12:33:00,51.6,51.6,29.59,SE,135,3.6,3.6,100,0.08,CLR,,0.63,WeatherDisplay:10.37,2013-01-16 10:33:00,
2013-01-16 12:36:00,51.8,51.8,29.59,SE,135,4.6,4.6,100,0.08,CLR,,0.63,WeatherDisplay:10.37,2013-01-16 10:36:00,
2013-01-16 12:37:00,51.8,51.8,29.59,SE,135,3.5,3.5,100,0.08,CLR,,0.63,WeatherDisplay:10.37,2013-01-16 10:37:00,
2013-01-16 12:38:00,51.8,51.8,29.59,SE,135,2.3,2.3,100,0.08,CLR,,0.63,WeatherDisplay:10.37,2013-01-16 10:38:00,
2013-01-16 12:41:00,52.0,52.0,29.59,SE,135,3.8,3.8,100,0.04,CLR,,0.63,WeatherDisplay:10.37,2013-01-16 10:41:00,
2013-01-16 12:42:00,52.0,52.0,29.59,SSE,158,6.9,6.9,100,0.04,CLR,,0.63,WeatherDisplay:10.37,2013-01-16 10:42:00,
2013-01-16 12:43:00,52.0,52.0,29.59,SSE,158,6.9,6.9,100,0.04,CLR,,0.63,WeatherDisplay:10.37,2013-01-16 10:43:00,
2013-01-16 12:44:00,52.2,52.2,29.59,SE,135,6.9,6.9,100,0.04,CLR,,0.63,WeatherDisplay:10.37,2013-01-16 10:44:00,
2013-01-16 12:46:00,52.3,52.3,29.59,SSE,158,5.8,5.8,100,0.04,CLR,,0.63,WeatherDisplay:10.37,2013-01-16 10:46:00,
2013-01-16 12:47:00,52.3,52.3,29.59,SE,135,4.3,4.3,100,0.04,CLR,,0.63,WeatherDisplay:10.37,2013-01-16 10:47:00,
2013-01-16 12:48:00,52.3,52.3,29.59,ESE,112,8.1,8.1,100,0.04,CLR,,0.63,WeatherDisplay:10.37,2013-01-16 10:48:00,
2013-01-16 12:49:00,52.3,52.3,29.59,ESE,112,8.1,8.1,100,0.04,CLR,,0.63,WeatherDisplay:10.37,2013-01-16 10:49:00,
2013-01-16 12:51:00,52.5,52.5,29.59,SE,135,3.8,3.8,100,0.04,CLR,,0.63,WeatherDisplay:10.37,2013-01-16 10:51:00,
2013-01-16 12:52:00,52.5,52.5,29.59,SE,135,4.6,4.6,100,0.04,CLR,,0.63,WeatherDisplay:10.37,2013-01-16 10:52:00,
2013-01-16 12:53:00,52.5,52.5,29.59,SSE,158,4.6,4.6,100,0.00,CLR,,0.63,WeatherDisplay:10.37,2013-01-16 10:53:00,
2013-01-16 12:54:00,52.7,52.7,29.59,SE,135,4.6,4.6,100,0.00,CLR,,0.63,WeatherDisplay:10.37,2013-01-16 10:54:00,
2013-01-16 12:56:00,52.7,52.7,29.59,SE,135,4.6,4.6,100,0.00,CLR,,0.63,WeatherDisplay:10.37,2013-01-16 10:56:00,
2013-01-16 12:57:00,52.9,52.9,29.59,SE,135,3.6,3.6,100,0.00,CLR,,0.63,WeatherDisplay:10.37,2013-01-16 10:57:00,
2013-01-16 12:58:00,52.9,52.9,29.59,SSE,158,6.9,6.9,100,0.00,CLR,,0.63,WeatherDisplay:10.37,2013-01-16 10:58:00,
2013-01-16 12:59:00,52.9,52.9,29.59,SSE,158,6.9,6.9,100,0.00,CLR,,0.63,WeatherDisplay:10.37,2013-01-16 10:59:00,
2013-01-16 13:01:00,53.1,53.1,29.59,SSE,158,3.6,3.6,100,0.00,CLR,,0.63,WeatherDisplay:10.37,2013-01-16 11:01:00,
2013-01-16 13:03:00,53.1,53.1,29.59,SSE,158,5.8,5.8,100,0.00,CLR,,0.63,WeatherDisplay:10.37,2013-01-16 11:03:00,
2013-01-16 13:04:00,53.1,53.1,29.59,SSE,158,5.8,5.8,100,0.00,CLR,,0.63,WeatherDisplay:10.37,2013-01-16 11:04:00,
2013-01-16 13:06:00,53.2,53.2,29.59,South,180,2.4,2.4,100,0.00,CLR,,0.63,WeatherDisplay:10.37,2013-01-16 11:06:00,
2013-01-16 13:08:00,53.4,53.4,29.59,SSE,158,9.2,9.2,100,0.00,CLR,,0.63,WeatherDisplay:10.37,2013-01-16 11:08:00,
2013-01-16 13:09:00,53.4,53.4,29.59,SSE,158,9.2,9.2,100,0.00,CLR,,0.63,WeatherDisplay:10.37,2013-01-16 11:09:00,
2013-01-16 13:12:00,53.6,53.6,29.59,SSE,158,5.8,5.8,100,0.00,CLR,,0.63,WeatherDisplay:10.37,2013-01-16 11:12:00,
2013-01-16 13:13:00,53.6,53.6,29.59,SSE,158,9.2,9.2,100,0.00,CLR,,0.63,WeatherDisplay:10.37,2013-01-16 11:13:00,
2013-01-16 13:14:00,53.8,53.8,29.59,SSE,158,5.8,5.9,100,0.00,CLR,,0.63,WeatherDisplay:10.37,2013-01-16 11:14:00,
2013-01-16 13:17:00,54.0,54.0,29.56,SSE,158,5.8,5.8,100,0.00,CLR,,0.63,WeatherDisplay:10.37,2013-01-16 11:17:00,
2013-01-16 13:18:00,54.0,54.0,29.56,SW,225,5.9,5.9,100,0.00,CLR,,0.63,WeatherDisplay:10.37,2013-01-16 11:18:00,
2013-01-16 13:19:00,54.1,54.1,29.56,SSE,158,6.0,6.0,100,0.00,CLR,,0.63,WeatherDisplay:10.37,2013-01-16 11:19:00,
2013-01-16 13:22:00,54.5,54.5,29.56,SSE,158,18.4,18.4,100,0.00,CLR,,0.63,WeatherDisplay:10.37,2013-01-16 11:22:00,
2013-01-16 13:23:00,54.5,54.5,29.56,SSE,158,12.8,12.8,100,0.00,CLR,,0.63,WeatherDisplay:10.37,2013-01-16 11:23:00,
2013-01-16 13:24:00,54.5,54.5,29.56,SSE,158,12.7,12.7,100,0.00,CLR,,0.63,WeatherDisplay:10.37,2013-01-16 11:24:00,
2013-01-16 13:25:00,54.5,54.5,29.56,SE,135,12.7,12.7,100,0.00,CLR,,0.63,WeatherDisplay:10.37,2013-01-16 11:25:00,
2013-01-16 13:27:00,54.7,54.7,29.56,SSE,158,15.0,15.0,100,0.00,CLR,,0.63,WeatherDisplay:10.37,2013-01-16 11:27:00,
2013-01-16 13:28:00,54.7,54.7,29.56,SSE,158,12.7,12.7,100,0.00,CLR,,0.63,WeatherDisplay:10.37,2013-01-16 11:28:00,
2013-01-16 13:29:00,54.9,54.9,29.56,SSW,202,5.9,5.9,100,0.00,CLR,,0.63,WeatherDisplay:10.37,2013-01-16 11:29:00,
2013-01-16 13:30:00,54.9,54.9,29.56,SSW,202,5.8,5.8,100,0.00,CLR,,0.63,WeatherDisplay:10.37,2013-01-16 11:30:00,
2013-01-16 13:32:00,55.0,55.0,29.56,SSE,158,16.1,16.1,100,0.00,CLR,,0.63,WeatherDisplay:10.37,2013-01-16 11:32:00,
2013-01-16 13:33:00,55.0,55.0,29.56,SSW,202,20.7,20.7,100,0.00,CLR,,0.63,WeatherDisplay:10.37,2013-01-16 11:33:00,
2013-01-16 13:34:00,55.0,55.0,29.56,South,180,15.0,15.0,100,0.00,CLR,,0.63,WeatherDisplay:10.37,2013-01-16 11:34:00,
2013-01-16 13:35:00,55.0,55.0,29.56,SSE,158,24.2,24.2,100,0.00,CLR,,0.63,WeatherDisplay:10.37,2013-01-16 11:35:00,
2013-01-16 13:37:00,55.4,55.4,29.56,SSE,158,13.8,13.8,100,0.00,CLR,,0.63,WeatherDisplay:10.37,2013-01-16 11:37:00,
2013-01-16 13:38:00,55.4,55.4,29.56,SSE,158,15.0,15.0,100,0.00,CLR,,0.63,WeatherDisplay:10.37,2013-01-16 11:38:00,
2013-01-16 13:40:00,55.4,55.4,29.56,SSE,158,15.0,15.0,100,0.00,CLR,,0.63,WeatherDisplay:10.37,2013-01-16 11:40:00,
2013-01-16 13:42:00,55.9,55.9,29.56,South,180,12.5,12.5,100,0.00,CLR,,0.63,WeatherDisplay:10.37,2013-01-16 11:42:00,
2013-01-16 13:43:00,55.9,55.9,29.56,SSE,158,14.5,14.5,100,0.00,CLR,,0.63,WeatherDisplay:10.37,2013-01-16 11:43:00,
2013-01-16 13:45:00,56.3,56.3,29.56,SSE,158,13.0,13.0,100,0.00,CLR,,0.63,WeatherDisplay:10.37,2013-01-16 11:45:00,
2013-01-16 13:47:00,56.7,56.7,29.56,SSW,202,9.2,9.2,100,0.00,CLR,,0.63,WeatherDisplay:10.37,2013-01-16 11:47:00,
2013-01-16 13:48:00,57.0,57.0,29.56,SSE,158,9.2,9.2,100,0.00,CLR,,0.63,WeatherDisplay:10.37,2013-01-16 11:48:00,
2013-01-16 13:50:00,57.2,56.9,29.56,South,180,17.3,17.3,99,0.00,CLR,,0.63,WeatherDisplay:10.37,2013-01-16 11:50:00,
2013-01-16 13:53:00,58.1,57.5,29.56,SSE,158,10.4,10.4,98,0.00,CLR,,0.63,WeatherDisplay:10.37,2013-01-16 11:53:00,
2013-01-16 13:56:00,58.5,57.6,29.56,SSE,158,6.9,6.9,97,0.00,CLR,,0.63,WeatherDisplay:10.37,2013-01-16 11:56:00,
2013-01-16 13:58:00,58.5,57.0,29.56,SSE,158,12.7,12.7,95,0.00,CLR,,0.63,WeatherDisplay:10.37,2013-01-16 11:58:00,
2013-01-16 14:01:00,58.5,56.4,29.56,South,180,17.3,17.3,93,0.00,CLR,,0.63,WeatherDisplay:10.37,2013-01-16 12:01:00,
2013-01-16 14:03:00,58.3,56.3,29.56,SE,135,10.4,10.4,93,0.00,CLR,,0.63,WeatherDisplay:10.37,2013-01-16 12:03:00,
2013-01-16 14:04:00,58.3,56.3,29.56,SSE,158,16.1,16.1,93,0.00,CLR,,0.63,WeatherDisplay:10.37,2013-01-16 12:04:00,
2013-01-16 14:06:00,58.1,55.5,29.56,SSE,158,20.7,20.7,91,0.00,CLR,,0.63,WeatherDisplay:10.37,2013-01-16 12:06:00,
2013-01-16 14:09:00,58.5,56.1,29.56,SSE,158,15.0,15.0,92,0.00,CLR,,0.63,WeatherDisplay:10.37,2013-01-16 12:09:00,
2013-01-16 14:11:00,58.6,56.6,29.56,SSE,158,12.7,12.7,93,0.00,CLR,,0.63,WeatherDisplay:10.37,2013-01-16 12:11:00,
2013-01-16 14:14:00,59.0,56.7,29.56,SSE,158,10.0,10.0,92,0.00,CLR,,0.63,WeatherDisplay:10.37,2013-01-16 12:14:00,
2013-01-16 14:15:00,58.8,56.5,29.56,SSE,158,10.4,10.4,92,0.00,CLR,,0.63,WeatherDisplay:10.37,2013-01-16 12:15:00,
2013-01-16 14:16:00,58.8,56.5,29.56,SSW,202,8.1,8.1,92,0.00,CLR,,0.63,WeatherDisplay:10.37,2013-01-16 12:16:00,
2013-01-16 14:19:00,58.5,55.2,29.53,SSW,202,15.0,15.0,89,0.00,CLR,,0.63,WeatherDisplay:10.37,2013-01-16 12:19:00,
2013-01-16 14:20:00,58.6,55.4,29.53,WSW,248,11.5,11.5,89,0.00,CLR,,0.63,WeatherDisplay:10.37,2013-01-16 12:20:00,
2013-01-16 14:21:00,58.6,55.4,29.53,SSE,158,12.1,12.1,89,0.00,CLR,,0.63,WeatherDisplay:10.37,2013-01-16 12:21:00,
2013-01-16 14:22:00,58.6,55.1,29.53,SSE,158,11.5,11.5,88,0.00,CLR,,0.63,WeatherDisplay:10.37,2013-01-16 12:22:00,
2013-01-16 14:24:00,58.8,54.6,29.53,SE,135,19.6,19.6,86,0.00,CLR,,0.63,WeatherDisplay:10.37,2013-01-16 12:24:00,
2013-01-16 14:26:00,58.8,54.6,29.53,SSE,158,17.3,17.3,86,0.00,CLR,,0.63,WeatherDisplay:10.37,2013-01-16 12:26:00,
2013-01-16 14:27:00,59.0,54.8,29.53,SE,135,17.3,17.3,86,0.00,CLR,,0.63,WeatherDisplay:10.37,2013-01-16 12:27:00,
2013-01-16 14:29:00,59.2,55.0,29.53,SSW,202,9.2,9.2,86,0.00,CLR,,0.63,WeatherDisplay:10.37,2013-01-16 12:29:00,
2013-01-16 14:31:00,59.2,55.0,29.53,SSE,158,19.6,19.6,86,0.00,CLR,,0.63,WeatherDisplay:10.37,2013-01-16 12:31:00,
2013-01-16 14:32:00,59.4,54.5,29.53,SSE,158,17.3,17.3,84,0.00,CLR,,0.63,WeatherDisplay:10.37,2013-01-16 12:32:00,
2013-01-16 14:34:00,60.1,55.9,29.53,South,180,10.0,10.0,86,0.00,CLR,,0.63,WeatherDisplay:10.37,2013-01-16 12:34:00,
2013-01-16 14:36:00,60.4,55.6,29.53,SSE,158,10.4,10.4,84,0.00,CLR,,0.63,WeatherDisplay:10.37,2013-01-16 12:36:00,
2013-01-16 14:37:00,60.6,56.1,29.53,SSW,202,5.8,5.8,85,0.00,CLR,,0.63,WeatherDisplay:10.37,2013-01-16 12:37:00,
2013-01-16 14:39:00,60.3,55.1,29.53,SW,225,6.9,6.9,83,0.00,CLR,,0.63,WeatherDisplay:10.37,2013-01-16 12:39:00,
2013-01-16 14:41:00,60.3,55.4,29.53,SE,135,3.5,3.5,84,0.00,CLR,,0.63,WeatherDisplay:10.37,2013-01-16 12:41:00,
2013-01-16 14:42:00,60.3,55.4,29.53,SSE,158,6.9,6.9,84,0.00,CLR,,0.63,WeatherDisplay:10.37,2013-01-16 12:42:00,
2013-01-16 14:45:00,59.5,54.4,29.53,SSE,158,9.2,9.2,83,0.00,CLR,,0.63,WeatherDisplay:10.37,2013-01-16 12:45:00,
2013-01-16 14:46:00,59.5,54.4,29.53,SSW,202,13.8,13.8,83,0.00,CLR,,0.63,WeatherDisplay:10.37,2013-01-16 12:46:00,
2013-01-16 14:47:00,59.4,54.2,29.53,SSW,202,13.8,13.8,83,0.00,CLR,,0.63,WeatherDisplay:10.37,2013-01-16 12:47:00,
2013-01-16 14:50:00,59.4,54.5,29.53,South,179,7.0,14.0,84,0.00,CLR,,0.63,WeatherDisplay:10.37,2013-01-16 12:50:00,
2013-01-16 14:51:00,59.2,54.3,29.53,SSW,202,12.7,12.7,84,0.00,CLR,,0.63,WeatherDisplay:10.37,2013-01-16 12:51:00,
2013-01-16 14:52:00,59.4,54.5,29.53,SSW,202,13.0,13.0,84,0.00,CLR,,0.63,WeatherDisplay:10.37,2013-01-16 12:52:00,
2013-01-16 14:53:00,59.4,54.5,29.53,SSW,202,12.7,12.7,84,0.00,CLR,,0.63,WeatherDisplay:10.37,2013-01-16 12:53:00,
2013-01-16 14:55:00,59.4,54.5,29.53,SSW,202,12.5,12.5,84,0.00,CLR,,0.63,WeatherDisplay:10.37,2013-01-16 12:55:00,
2013-01-16 14:56:00,59.5,54.7,29.53,SSE,158,12.7,12.7,84,0.00,CLR,,0.63,WeatherDisplay:10.37,2013-01-16 12:56:00,
2013-01-16 14:57:00,59.5,54.7,29.53,South,180,10.4,10.4,84,0.00,CLR,,0.63,WeatherDisplay:10.37,2013-01-16 12:57:00,
2013-01-16 14:58:00,59.7,54.9,29.53,SSW,202,10.4,10.4,84,0.00,CLR,,0.63,WeatherDisplay:10.37,2013-01-16 12:58:00,
2013-01-16 15:00:00,59.7,54.9,29.53,SSW,202,10.4,10.4,84,0.00,CLR,,0.63,WeatherDisplay:10.37,2013-01-16 13:00:00,
2013-01-16 15:02:00,59.9,55.4,29.50,SSW,202,10.4,10.4,85,0.00,CLR,,0.63,WeatherDisplay:10.37,2013-01-16 13:02:00,
2013-01-16 15:03:00,60.3,55.7,29.50,WSW,248,7.8,7.8,85,0.00,CLR,,0.63,WeatherDisplay:10.37,2013-01-16 13:03:00,
2013-01-16 15:05:00,59.9,55.1,29.50,SSW,202,19.6,19.6,84,0.00,CLR,,0.63,WeatherDisplay:10.37,2013-01-16 13:05:00,
2013-01-16 15:07:00,59.9,55.1,29.50,SSE,158,19.6,19.6,84,0.00,CLR,,0.63,WeatherDisplay:10.37,2013-01-16 13:07:00,
2013-01-16 15:08:00,59.9,55.1,29.50,SSW,202,11.5,11.5,84,0.00,CLR,,0.63,WeatherDisplay:10.37,2013-01-16 13:08:00,
2013-01-16 15:10:00,59.7,55.2,29.50,SSW,202,10.4,10.4,85,0.00,CLR,,0.63,WeatherDisplay:10.37,2013-01-16 13:10:00,
2013-01-16 15:12:00,59.7,55.2,29.50,SSE,158,11.5,11.5,85,0.00,CLR,,0.63,WeatherDisplay:10.37,2013-01-16 13:12:00,
2013-01-16 15:13:00,59.7,55.5,29.50,SSW,202,11.5,11.5,86,0.00,CLR,,0.63,WeatherDisplay:10.37,2013-01-16 13:13:00,
2013-01-16 15:15:00,59.7,55.2,29.50,SSE,158,7.8,7.8,85,0.00,CLR,,0.63,WeatherDisplay:10.37,2013-01-16 13:15:00,
2013-01-16 15:17:00,59.7,55.2,29.50,SSW,202,15.0,15.0,85,0.00,CLR,,0.63,WeatherDisplay:10.37,2013-01-16 13:17:00,
2013-01-16 15:18:00,59.5,54.7,29.50,SSW,202,15.0,15.0,84,0.00,CLR,,0.63,WeatherDisplay:10.37,2013-01-16 13:18:00,
2013-01-16 15:21:00,59.5,54.7,29.50,South,180,8.1,8.1,84,0.00,CLR,,0.63,WeatherDisplay:10.37,2013-01-16 13:21:00,
2013-01-16 15:22:00,59.5,54.7,29.50,SSE,158,12.8,12.8,84,0.00,CLR,,0.63,WeatherDisplay:10.37,2013-01-16 13:22:00,
2013-01-16 15:23:00,59.7,55.2,29.50,SSE,158,21.3,21.3,85,0.00,CLR,,0.63,WeatherDisplay:10.37,2013-01-16 13:23:00,
2013-01-16 15:27:00,59.7,55.5,29.50,South,180,13.2,13.2,86,0.00,CLR,,0.63,WeatherDisplay:10.37,2013-01-16 13:27:00,
2013-01-16 15:29:00,59.4,55.2,29.50,SSE,158,17.3,17.3,86,0.00,CLR,,0.63,WeatherDisplay:10.37,2013-01-16 13:29:00,
2013-01-16 15:32:00,59.4,55.5,29.50,SSE,158,17.3,17.3,87,0.00,CLR,,0.63,WeatherDisplay:10.37,2013-01-16 13:32:00,
2013-01-16 15:33:00,59.4,55.5,29.50,SSE,158,17.3,17.3,87,0.00,CLR,,0.63,WeatherDisplay:10.37,2013-01-16 13:33:00,
2013-01-16 15:34:00,59.2,55.6,29.50,SSE,158,21.9,21.9,88,0.00,CLR,,0.63,WeatherDisplay:10.37,2013-01-16 13:34:00,
2013-01-16 15:37:00,59.2,55.3,29.50,SSE,158,15.0,15.0,87,0.00,CLR,,0.63,WeatherDisplay:10.37,2013-01-16 13:37:00,
2013-01-16 15:38:00,59.4,55.8,29.50,South,180,15.0,15.0,88,0.00,CLR,,0.63,WeatherDisplay:10.37,2013-01-16 13:38:00,
2013-01-16 15:39:00,59.4,55.8,29.50,SSW,202,15.0,15.0,88,0.00,CLR,,0.63,WeatherDisplay:10.37,2013-01-16 13:39:00,
2013-01-16 15:42:00,59.2,55.6,29.50,SSE,158,15.0,15.0,88,0.00,CLR,,0.63,WeatherDisplay:10.37,2013-01-16 13:42:00,
2013-01-16 15:43:00,59.4,55.8,29.50,South,180,10.4,10.4,88,0.00,CLR,,0.63,WeatherDisplay:10.37,2013-01-16 13:43:00,
2013-01-16 15:44:00,59.4,55.8,29.50,SSW,202,10.4,10.4,88,0.00,CLR,,0.63,WeatherDisplay:10.37,2013-01-16 13:44:00,
2013-01-16 15:47:00,59.4,54.8,29.50,South,180,23.0,23.0,85,0.00,CLR,,0.63,WeatherDisplay:10.37,2013-01-16 13:47:00,
2013-01-16 15:48:00,59.4,54.8,29.50,SSE,158,12.8,12.8,85,0.00,CLR,,0.63,WeatherDisplay:10.37,2013-01-16 13:48:00,
2013-01-16 15:49:00,59.4,54.8,29.50,SSE,158,12.7,12.7,85,0.00,CLR,,0.63,WeatherDisplay:10.37,2013-01-16 13:49:00,
2013-01-16 15:52:00,59.2,54.3,29.50,ESE,112,15.0,15.0,84,0.00,CLR,,0.63,WeatherDisplay:10.37,2013-01-16 13:52:00,
2013-01-16 15:53:00,59.2,54.3,29.50,SSE,158,11.5,11.5,84,0.00,CLR,,0.63,WeatherDisplay:10.37,2013-01-16 13:53:00,
2013-01-16 15:54:00,59.2,54.3,29.50,SSE,158,11.5,11.5,84,0.00,CLR,,0.63,WeatherDisplay:10.37,2013-01-16 13:54:00,
2013-01-16 15:57:00,58.8,54.3,29.50,South,180,12.7,12.7,85,0.00,CLR,,0.63,WeatherDisplay:10.37,2013-01-16 13:57:00,
2013-01-16 15:58:00,58.8,54.3,29.50,SSW,202,12.7,12.7,85,0.00,CLR,,0.63,WeatherDisplay:10.37,2013-01-16 13:58:00,
2013-01-16 15:59:00,58.8,54.3,29.50,SSE,158,12.7,12.7,85,0.00,CLR,,0.63,WeatherDisplay:10.37,2013-01-16 13:59:00,
2013-01-16 16:02:00,58.6,54.5,29.50,SSE,158,17.3,17.3,86,0.00,CLR,,0.63,WeatherDisplay:10.37,2013-01-16 14:02:00,
2013-01-16 16:03:00,58.6,54.1,29.50,SSW,202,17.3,17.3,85,0.00,CLR,,0.63,WeatherDisplay:10.37,2013-01-16 14:03:00,
2013-01-16 16:04:00,58.6,54.5,29.50,SSW,202,18.4,18.4,86,0.00,CLR,,0.63,WeatherDisplay:10.37,2013-01-16 14:04:00,
2013-01-16 16:08:00,58.5,54.9,29.50,SSW,202,13.8,13.8,88,0.00,CLR,,0.63,WeatherDisplay:10.37,2013-01-16 14:08:00,
2013-01-16 16:09:00,58.6,55.4,29.50,SSE,158,13.8,13.8,89,0.00,CLR,,0.63,WeatherDisplay:10.37,2013-01-16 14:09:00,
2013-01-16 16:10:00,58.5,55.2,29.50,SSE,158,15.6,15.6,89,0.00,CLR,,0.63,WeatherDisplay:10.37,2013-01-16 14:10:00,
2013-01-16 16:13:00,58.5,55.5,29.50,South,180,10.4,10.4,90,0.00,CLR,,0.63,WeatherDisplay:10.37,2013-01-16 14:13:00,
2013-01-16 16:14:00,58.5,55.5,29.50,SSW,202,10.4,10.4,90,0.00,CLR,,0.63,WeatherDisplay:10.37,2013-01-16 14:14:00,
2013-01-16 16:15:00,58.3,55.4,29.50,SSE,158,16.6,16.6,90,0.00,CLR,,0.63,WeatherDisplay:10.37,2013-01-16 14:15:00,
2013-01-16 16:18:00,58.3,55.7,29.50,South,180,21.9,21.9,91,0.00,CLR,,0.63,WeatherDisplay:10.37,2013-01-16 14:18:00,
2013-01-16 16:19:00,58.3,55.7,29.50,SSE,158,11.5,11.5,91,0.00,CLR,,0.63,WeatherDisplay:10.37,2013-01-16 14:19:00,
2013-01-16 16:21:00,58.1,55.5,29.50,SSW,202,14.7,14.7,91,0.00,CLR,,0.63,WeatherDisplay:10.37,2013-01-16 14:21:00,
2013-01-16 16:23:00,58.1,55.8,29.50,SSW,202,9.2,9.2,92,0.00,CLR,,0.63,WeatherDisplay:10.37,2013-01-16 14:23:00,
2013-01-16 16:24:00,58.1,55.8,29.50,SSE,158,19.6,19.6,92,0.00,CLR,,0.63,WeatherDisplay:10.37,2013-01-16 14:24:00,
2013-01-16 16:26:00,58.1,55.8,29.50,SE,135,23.0,23.0,92,0.00,CLR,,0.63,WeatherDisplay:10.37,2013-01-16 14:26:00,
2013-01-16 16:28:00,58.3,55.7,29.50,SSE,158,20.7,20.7,91,0.00,CLR,,0.63,WeatherDisplay:10.37,2013-01-16 14:28:00,
2013-01-16 16:29:00,58.6,56.0,29.50,SSW,202,13.8,13.8,91,0.00,CLR,,0.63,WeatherDisplay:10.37,2013-01-16 14:29:00,
2013-01-16 16:31:00,58.8,55.6,29.50,SSE,158,16.1,16.1,89,0.00,CLR,,0.63,WeatherDisplay:10.37,2013-01-16 14:31:00,
2013-01-16 16:33:00,58.8,55.6,29.50,SSE,158,25.6,25.6,89,0.00,CLR,,0.63,WeatherDisplay:10.37,2013-01-16 14:33:00,
2013-01-16 16:34:00,58.8,54.6,29.50,South,180,25.3,25.3,86,0.00,CLR,,0.63,WeatherDisplay:10.37,2013-01-16 14:34:00,
2013-01-16 16:36:00,59.0,54.5,29.50,SE,135,18.4,18.4,85,0.00,CLR,,0.63,WeatherDisplay:10.37,2013-01-16 14:36:00,
2013-01-16 16:38:00,59.2,54.3,29.50,SSE,158,24.2,24.2,84,0.00,CLR,,0.63,WeatherDisplay:10.37,2013-01-16 14:38:00,
2013-01-16 16:39:00,59.2,54.3,29.50,SSE,158,19.6,19.6,84,0.00,CLR,,0.63,WeatherDisplay:10.37,2013-01-16 14:39:00,
2013-01-16 16:41:00,59.2,54.3,29.50,SSE,158,12.7,12.7,84,0.00,CLR,,0.63,WeatherDisplay:10.37,2013-01-16 14:41:00,
2013-01-16 16:43:00,58.8,54.3,29.50,SSE,158,11.5,11.5,85,0.00,CLR,,0.63,WeatherDisplay:10.37,2013-01-16 14:43:00,
2013-01-16 16:44:00,58.8,54.3,29.50,SSE,158,11.5,11.5,85,0.00,CLR,,0.63,WeatherDisplay:10.37,2013-01-16 14:44:00,
2013-01-16 16:45:00,58.8,54.3,29.50,SSE,158,18.4,18.4,85,0.00,CLR,,0.63,WeatherDisplay:10.37,2013-01-16 14:45:00,
2013-01-16 16:46:00,58.5,54.6,29.50,SSE,158,17.3,17.3,87,0.00,CLR,,0.63,WeatherDisplay:10.37,2013-01-16 14:46:00,
2013-01-16 16:48:00,58.5,55.2,29.47,SSW,202,19.6,19.6,89,0.00,CLR,,0.63,WeatherDisplay:10.37,2013-01-16 14:48:00,
2013-01-16 16:49:00,58.5,55.2,29.47,SSW,202,19.6,19.6,89,0.00,CLR,,0.63,WeatherDisplay:10.37,2013-01-16 14:49:00,
2013-01-16 16:50:00,58.3,55.4,29.47,SSE,158,16.1,16.1,90,0.00,CLR,,0.63,WeatherDisplay:10.37,2013-01-16 14:50:00,
2013-01-16 16:51:00,58.3,55.4,29.47,SSW,202,16.1,16.1,90,0.00,CLR,,0.63,WeatherDisplay:10.37,2013-01-16 14:51:00,
2013-01-16 16:54:00,58.3,55.7,29.47,South,180,18.4,18.4,91,0.00,CLR,,0.63,WeatherDisplay:10.37,2013-01-16 14:54:00,
2013-01-16 16:55:00,58.3,56.0,29.47,SSW,202,12.7,12.7,92,0.00,CLR,,0.63,WeatherDisplay:10.37,2013-01-16 14:55:00,
2013-01-16 16:56:00,58.3,56.0,29.47,SSW,202,10.4,10.4,92,0.00,CLR,,0.63,WeatherDisplay:10.37,2013-01-16 14:56:00,
2013-01-16 16:59:00,58.1,55.2,29.47,SSE,158,14.3,14.3,90,0.00,CLR,,0.63,WeatherDisplay:10.37,2013-01-16 14:59:00,
2013-01-16 17:01:00,58.1,54.9,29.47,South,180,13.8,13.8,89,0.00,CLR,,0.63,WeatherDisplay:10.37,2013-01-16 15:01:00,
2013-01-16 17:04:00,58.1,53.3,29.50,South,180,20.7,20.7,84,0.00,CLR,,0.63,WeatherDisplay:10.37,2013-01-16 15:04:00,
2013-01-16 17:05:00,58.1,53.3,29.50,South,174,9.0,21.0,84,0.00,CLR,,0.63,WeatherDisplay:10.37,2013-01-16 15:05:00,
2013-01-16 17:06:00,58.3,52.8,29.50,South,180,15.0,15.0,82,0.00,CLR,,0.63,WeatherDisplay:10.37,2013-01-16 15:06:00,
2013-01-16 17:07:00,58.3,52.8,29.50,South,180,6.9,6.9,82,0.00,CLR,,0.63,WeatherDisplay:10.37,2013-01-16 15:07:00,
2013-01-16 17:09:00,58.3,52.1,29.50,SSE,158,10.7,10.7,80,0.00,CLR,,0.63,WeatherDisplay:10.37,2013-01-16 15:09:00,
2013-01-16 17:10:00,58.3,52.1,29.50,SSE,158,13.8,13.8,80,0.00,CLR,,0.63,WeatherDisplay:10.37,2013-01-16 15:10:00,
2013-01-16 17:11:00,58.3,52.1,29.50,SSE,158,13.8,13.8,80,0.00,CLR,,0.63,WeatherDisplay:10.37,2013-01-16 15:11:00,
2013-01-16 17:12:00,58.3,52.1,29.50,South,180,12.7,12.7,80,0.00,CLR,,0.63,WeatherDisplay:10.37,2013-01-16 15:12:00,
2013-01-16 17:14:00,58.3,50.0,29.50,SSW,202,13.8,13.8,74,0.00,CLR,,0.63,WeatherDisplay:10.37,2013-01-16 15:14:00,
2013-01-16 17:15:00,58.3,49.7,29.50,SSW,202,12.7,12.7,73,0.00,CLR,,0.63,WeatherDisplay:10.37,2013-01-16 15:15:00,
2013-01-16 17:16:00,58.3,49.3,29.50,SSE,158,10.4,10.4,72,0.00,CLR,,0.63,WeatherDisplay:10.37,2013-01-16 15:16:00,
2013-01-16 17:17:00,58.3,48.9,29.50,SSE,158,16.8,16.8,71,0.00,CLR,,0.63,WeatherDisplay:10.37,2013-01-16 15:17:00,
2013-01-16 17:19:00,58.3,48.2,29.50,SSE,158,11.5,11.5,69,0.00,CLR,,0.63,WeatherDisplay:10.37,2013-01-16 15:19:00,
2013-01-16 17:20:00,58.3,47.8,29.50,SE,135,15.2,15.2,68,0.00,CLR,,0.63,WeatherDisplay:10.37,2013-01-16 15:20:00,
2013-01-16 17:21:00,58.3,47.8,29.50,SSW,202,15.0,15.0,68,0.00,CLR,,0.63,WeatherDisplay:10.37,2013-01-16 15:21:00,
2013-01-16 17:22:00,58.3,47.8,29.50,WSW,248,6.9,6.9,68,0.00,CLR,,0.63,WeatherDisplay:10.37,2013-01-16 15:22:00,
2013-01-16 17:24:00,58.3,47.8,29.50,SSW,202,11.5,11.5,68,0.00,CLR,,0.63,WeatherDisplay:10.37,2013-01-16 15:24:00,
2013-01-16 17:25:00,58.3,47.4,29.50,SSE,158,10.4,10.4,67,0.00,CLR,,0.63,WeatherDisplay:10.37,2013-01-16 15:25:00,
2013-01-16 17:26:00,58.3,46.2,29.50,South,180,11.5,11.5,64,0.00,CLR,,0.63,WeatherDisplay:10.37,2013-01-16 15:26:00,
2013-01-16 17:27:00,58.3,46.2,29.50,South,180,15.0,15.0,64,0.00,CLR,,0.63,WeatherDisplay:10.37,2013-01-16 15:27:00,
2013-01-16 17:29:00,58.3,45.7,29.50,SSW,202,6.9,6.9,63,0.00,CLR,,0.63,WeatherDisplay:10.37,2013-01-16 15:29:00,
2013-01-16 17:30:00,58.3,45.3,29.50,SSE,158,9.8,9.8,62,0.00,CLR,,0.63,WeatherDisplay:10.37,2013-01-16 15:30:00,
2013-01-16 17:32:00,58.3,44.9,29.50,SSW,202,11.5,11.5,61,0.00,CLR,,0.63,WeatherDisplay:10.37,2013-01-16 15:32:00,
2013-01-16 17:35:00,58.3,43.6,29.50,SSE,158,15.0,15.0,58,0.00,CLR,,0.63,WeatherDisplay:10.37,2013-01-16 15:35:00,
2013-01-16 17:37:00,58.3,42.6,29.50,South,180,15.0,15.0,56,0.00,CLR,,0.63,WeatherDisplay:10.37,2013-01-16 15:37:00,
2013-01-16 17:40:00,58.3,43.1,29.50,South,189,6.0,15.0,57,0.00,CLR,,0.63,WeatherDisplay:10.37,2013-01-16 15:40:00,
2013-01-16 17:42:00,58.3,42.6,29.50,SSW,202,13.0,13.0,56,0.00,CLR,,0.63,WeatherDisplay:10.37,2013-01-16 15:42:00,
2013-01-16 17:45:00,58.1,42.0,29.50,SSW,202,10.4,10.4,55,0.00,CLR,,0.63,WeatherDisplay:10.37,2013-01-16 15:45:00,
2013-01-16 17:46:00,58.1,42.5,29.50,South,180,8.1,8.1,56,0.00,CLR,,0.63,WeatherDisplay:10.37,2013-01-16 15:46:00,
2013-01-16 17:47:00,58.1,42.5,29.50,SSW,202,7.8,7.8,56,0.00,CLR,,0.63,WeatherDisplay:10.37,2013-01-16 15:47:00,
2013-01-16 17:50:00,57.9,41.8,29.50,SSE,158,10.0,10.0,55,0.00,CLR,,0.63,WeatherDisplay:10.37,2013-01-16 15:50:00,
2013-01-16 17:51:00,57.7,41.7,29.50,SSE,158,10.4,10.4,55,0.00,CLR,,0.63,WeatherDisplay:10.37,2013-01-16 15:51:00,
2013-01-16 17:52:00,57.6,41.0,29.50,WSW,248,8.1,8.1,54,0.00,CLR,,0.63,WeatherDisplay:10.37,2013-01-16 15:52:00,
2013-01-16 17:55:00,57.6,42.0,29.50,SW,225,6.9,6.9,56,0.00,CLR,,0.63,WeatherDisplay:10.37,2013-01-16 15:55:00,
2013-01-16 17:56:00,57.4,41.8,29.50,SW,225,4.6,4.6,56,0.00,CLR,,0.63,WeatherDisplay:10.37,2013-01-16 15:56:00,
2013-01-16 17:57:00,57.2,41.6,29.50,SSE,158,5.8,5.8,56,0.00,CLR,,0.63,WeatherDisplay:10.37,2013-01-16 15:57:00,
2013-01-16 17:58:00,57.2,41.6,29.50,SSW,202,5.6,5.6,56,0.00,CLR,,0.63,WeatherDisplay:10.37,2013-01-16 15:58:00,
2013-01-16 18:00:00,57.2,41.6,29.50,South,180,5.8,5.8,56,0.00,CLR,,0.63,WeatherDisplay:10.37,2013-01-16 16:00:00,
2013-01-16 18:01:00,57.2,41.6,29.50,SSW,202,4.6,4.6,56,0.00,CLR,,0.63,WeatherDisplay:10.37,2013-01-16 16:01:00,
2013-01-16 18:02:00,57.0,41.9,29.50,SSW,202,3.5,3.5,57,0.00,CLR,,0.63,WeatherDisplay:10.37,2013-01-16 16:02:00,
2013-01-16 18:03:00,57.0,41.9,29.50,SSW,202,3.8,3.8,57,0.00,CLR,,0.63,WeatherDisplay:10.37,2013-01-16 16:03:00,
2013-01-16 18:05:00,57.0,41.9,29.50,South,180,5.8,5.8,57,0.00,CLR,,0.63,WeatherDisplay:10.37,2013-01-16 16:05:00,
2013-01-16 18:06:00,57.0,42.4,29.50,South,180,5.8,5.8,58,0.00,CLR,,0.63,WeatherDisplay:10.37,2013-01-16 16:06:00,
2013-01-16 18:07:00,57.0,42.4,29.50,SSW,202,4.9,4.9,58,0.00,CLR,,0.63,WeatherDisplay:10.37,2013-01-16 16:07:00,
2013-01-16 18:08:00,57.0,41.9,29.50,SSW,202,6.9,6.9,57,0.00,CLR,,0.63,WeatherDisplay:10.37,2013-01-16 16:08:00,
2013-01-16 18:10:00,57.0,41.9,29.50,SSW,202,5.8,5.8,57,0.00,CLR,,0.63,WeatherDisplay:10.37,2013-01-16 16:10:00,
2013-01-16 18:11:00,57.0,41.5,29.50,South,180,6.2,6.2,56,0.00,CLR,,0.63,WeatherDisplay:10.37,2013-01-16 16:11:00,
2013-01-16 18:13:00,57.0,41.5,29.50,SW,225,5.8,5.8,56,0.00,CLR,,0.63,WeatherDisplay:10.37,2013-01-16 16:13:00,
2013-01-16 18:16:00,56.8,41.3,29.50,South,180,5.8,5.8,56,0.00,CLR,,0.63,WeatherDisplay:10.37,2013-01-16 16:16:00,
2013-01-16 18:17:00,56.8,41.3,29.50,SSW,202,3.5,3.5,56,0.00,CLR,,0.63,WeatherDisplay:10.37,2013-01-16 16:17:00,
2013-01-16 18:18:00,56.8,41.3,29.50,WSW,248,3.5,3.5,56,0.00,CLR,,0.63,WeatherDisplay:10.37,2013-01-16 16:18:00,
2013-01-16 18:21:00,56.8,40.4,29.50,SSW,202,6.9,6.9,54,0.00,CLR,,0.63,WeatherDisplay:10.37,2013-01-16 16:21:00,
2013-01-16 18:22:00,56.8,40.4,29.50,WSW,248,6.9,6.9,54,0.00,CLR,,0.63,WeatherDisplay:10.37,2013-01-16 16:22:00,
2013-01-16 18:23:00,56.8,40.4,29.50,SSW,202,6.9,6.9,54,0.00,CLR,,0.63,WeatherDisplay:10.37,2013-01-16 16:23:00,
2013-01-16 18:26:00,56.8,39.9,29.50,SSW,202,4.6,4.7,53,0.00,CLR,,0.63,WeatherDisplay:10.37,2013-01-16 16:26:00,
2013-01-16 18:27:00,56.8,39.9,29.50,SW,225,9.2,9.2,53,0.00,CLR,,0.63,WeatherDisplay:10.37,2013-01-16 16:27:00,
2013-01-16 18:28:00,56.8,38.9,29.50,SSW,202,9.2,9.2,51,0.00,CLR,,0.63,WeatherDisplay:10.37,2013-01-16 16:28:00,
2013-01-16 18:31:00,56.8,39.4,29.50,SSW,202,4.6,4.6,52,0.00,CLR,,0.63,WeatherDisplay:10.37,2013-01-16 16:31:00,
2013-01-16 18:32:00,56.7,39.2,29.53,SW,225,8.5,8.5,52,0.00,CLR,,0.63,WeatherDisplay:10.37,2013-01-16 16:32:00,
2013-01-16 18:33:00,56.7,38.7,29.53,SW,225,11.5,11.5,51,0.00,CLR,,0.63,WeatherDisplay:10.37,2013-01-16 16:33:00,
2013-01-16 18:36:00,56.7,39.2,29.53,South,180,5.8,5.8,52,0.00,CLR,,0.63,WeatherDisplay:10.37,2013-01-16 16:36:00,
2013-01-16 18:37:00,56.7,39.2,29.53,SSW,202,6.9,6.9,52,0.00,CLR,,0.63,WeatherDisplay:10.37,2013-01-16 16:37:00,
2013-01-16 18:38:00,56.7,39.2,29.53,South,180,8.1,8.1,52,0.00,CLR,,0.63,WeatherDisplay:10.37,2013-01-16 16:38:00,
2013-01-16 18:39:00,56.7,39.2,29.53,SSW,202,8.1,8.1,52,0.00,CLR,,0.63,WeatherDisplay:10.37,2013-01-16 16:39:00,
2013-01-16 18:41:00,56.7,39.2,29.53,SSE,158,5.8,5.8,52,0.00,CLR,,0.63,WeatherDisplay:10.37,2013-01-16 16:41:00,
2013-01-16 18:42:00,56.7,39.7,29.53,SSW,202,5.8,5.8,53,0.00,CLR,,0.63,WeatherDisplay:10.37,2013-01-16 16:42:00,
2013-01-16 18:43:00,56.7,39.7,29.53,SSW,202,8.5,8.5,53,0.00,CLR,,0.63,WeatherDisplay:10.37,2013-01-16 16:43:00,
2013-01-16 18:44:00,56.7,39.2,29.53,SW,225,6.9,7.4,52,0.00,CLR,,0.63,WeatherDisplay:10.37,2013-01-16 16:44:00,
2013-01-16 18:46:00,56.8,39.4,29.53,SSW,202,6.9,6.9,52,0.00,CLR,,0.63,WeatherDisplay:10.37,2013-01-16 16:46:00,
2013-01-16 18:47:00,56.8,39.4,29.50,WSW,248,5.9,5.9,52,0.00,CLR,,0.63,WeatherDisplay:10.37,2013-01-16 16:47:00,
2013-01-16 18:48:00,56.8,39.9,29.50,SSW,202,9.2,9.2,53,0.00,CLR,,0.63,WeatherDisplay:10.37,2013-01-16 16:48:00,
2013-01-16 18:49:00,56.8,40.4,29.50,WSW,248,9.2,9.2,54,0.00,CLR,,0.63,WeatherDisplay:10.37,2013-01-16 16:49:00,
2013-01-16 18:51:00,56.7,41.1,29.50,SSW,202,6.9,6.9,56,0.00,CLR,,0.63,WeatherDisplay:10.37,2013-01-16 16:51:00,
2013-01-16 18:52:00,56.7,41.1,29.50,SW,225,5.8,5.8,56,0.00,CLR,,0.63,WeatherDisplay:10.37,2013-01-16 16:52:00,
2013-01-16 18:53:00,56.7,41.1,29.50,South,180,8.1,8.1,56,0.00,CLR,,0.63,WeatherDisplay:10.37,2013-01-16 16:53:00,
2013-01-16 18:54:00,56.7,40.7,29.50,SSW,202,8.1,8.1,55,0.00,CLR,,0.63,WeatherDisplay:10.37,2013-01-16 16:54:00,
2013-01-16 18:56:00,56.7,39.2,29.50,SSW,202,7.1,7.1,52,0.00,CLR,,0.63,WeatherDisplay:10.37,2013-01-16 16:56:00,
2013-01-16 18:57:00,56.7,38.7,29.50,SW,225,6.9,6.9,51,0.00,CLR,,0.63,WeatherDisplay:10.37,2013-01-16 16:57:00,
2013-01-16 18:58:00,56.7,38.7,29.50,SSW,202,9.7,9.7,51,0.00,CLR,,0.63,WeatherDisplay:10.37,2013-01-16 16:58:00,
2013-01-16 18:59:00,56.7,38.7,29.50,South,180,8.1,8.1,51,0.00,CLR,,0.63,WeatherDisplay:10.37,2013-01-16 16:59:00,
2013-01-16 19:01:00,56.7,38.7,29.50,SSW,202,6.9,6.9,51,0.00,CLR,,0.63,WeatherDisplay:10.37,2013-01-16 17:01:00,
2013-01-16 19:02:00,56.7,39.2,29.50,SSW,202,5.8,5.8,52,0.00,CLR,,0.63,WeatherDisplay:10.37,2013-01-16 17:02:00,
2013-01-16 19:04:00,56.7,39.2,29.50,SSW,202,9.2,9.2,52,0.00,CLR,,0.63,WeatherDisplay:10.37,2013-01-16 17:04:00,
2013-01-16 19:06:00,56.5,39.5,29.50,South,180,5.9,5.9,53,0.00,CLR,,0.63,WeatherDisplay:10.37,2013-01-16 17:06:00,
2013-01-16 19:08:00,56.5,39.5,29.50,SSW,202,6.2,6.2,53,0.00,CLR,,0.63,WeatherDisplay:10.37,2013-01-16 17:08:00,
2013-01-16 19:09:00,56.5,40.0,29.50,SSW,202,5.8,5.8,54,0.00,CLR,,0.63,WeatherDisplay:10.37,2013-01-16 17:09:00,
2013-01-16 19:12:00,56.5,40.0,29.50,SW,225,9.2,9.2,54,0.00,CLR,,0.63,WeatherDisplay:10.37,2013-01-16 17:12:00,
2013-01-16 19:13:00,56.7,39.7,29.50,South,180,9.2,9.2,53,0.00,CLR,,0.63,WeatherDisplay:10.37,2013-01-16 17:13:00,
2013-01-16 19:14:00,56.7,40.2,29.50,SSW,202,9.2,9.2,54,0.00,CLR,,0.63,WeatherDisplay:10.37,2013-01-16 17:14:00,
2013-01-16 19:17:00,56.7,40.2,29.50,SW,225,9.2,9.2,54,0.00,CLR,,0.63,WeatherDisplay:10.37,2013-01-16 17:17:00,
2013-01-16 19:18:00,56.7,40.2,29.50,South,180,9.2,9.2,54,0.00,CLR,,0.63,WeatherDisplay:10.37,2013-01-16 17:18:00,
2013-01-16 19:19:00,56.5,40.0,29.50,South,180,5.8,5.8,54,0.00,CLR,,0.63,WeatherDisplay:10.37,2013-01-16 17:19:00,
2013-01-16 19:22:00,56.7,41.1,29.50,SSW,202,13.8,13.8,56,0.00,CLR,,0.63,WeatherDisplay:10.37,2013-01-16 17:22:00,
2013-01-16 19:23:00,56.7,41.6,29.50,SSW,202,9.2,9.2,57,0.00,CLR,,0.63,WeatherDisplay:10.37,2013-01-16 17:23:00,
2013-01-16 19:24:00,56.5,41.4,29.50,SSE,158,9.2,9.2,57,0.00,CLR,,0.63,WeatherDisplay:10.37,2013-01-16 17:24:00,
2013-01-16 19:27:00,56.5,42.3,29.50,South,180,8.1,8.1,59,0.00,CLR,,0.63,WeatherDisplay:10.37,2013-01-16 17:27:00,
2013-01-16 19:28:00,56.5,42.8,29.50,SSW,202,8.1,8.1,60,0.00,CLR,,0.63,WeatherDisplay:10.37,2013-01-16 17:28:00,
2013-01-16 19:29:00,56.3,43.0,29.50,SSE,158,9.2,9.2,61,0.00,CLR,,0.63,WeatherDisplay:10.37,2013-01-16 17:29:00,
2013-01-16 19:32:00,56.5,43.6,29.47,SSE,158,10.4,10.4,62,0.00,CLR,,0.63,WeatherDisplay:10.37,2013-01-16 17:32:00,
2013-01-16 19:33:00,56.3,43.0,29.47,SSW,202,10.4,10.4,61,0.00,CLR,,0.63,WeatherDisplay:10.37,2013-01-16 17:33:00,
2013-01-16 19:34:00,56.5,42.8,29.47,SSW,202,12.7,12.7,60,0.00,CLR,,0.63,WeatherDisplay:10.37,2013-01-16 17:34:00,
2013-01-16 19:35:00,56.3,42.6,29.47,South,180,12.7,12.7,60,0.00,CLR,,0.63,WeatherDisplay:10.37,2013-01-16 17:35:00,
2013-01-16 19:37:00,56.3,42.1,29.47,SSW,202,6.4,6.4,59,0.00,CLR,,0.63,WeatherDisplay:10.37,2013-01-16 17:37:00,
2013-01-16 19:38:00,56.3,42.1,29.47,SSW,202,6.9,6.9,59,0.00,CLR,,0.63,WeatherDisplay:10.37,2013-01-16 17:38:00,
2013-01-16 19:39:00,56.3,42.1,29.47,SSW,202,5.8,5.8,59,0.00,CLR,,0.63,WeatherDisplay:10.37,2013-01-16 17:39:00,
2013-01-16 19:40:00,56.3,42.1,29.47,SSE,158,5.8,5.8,59,0.00,CLR,,0.63,WeatherDisplay:10.37,2013-01-16 17:40:00,
2013-01-16 19:42:00,56.3,41.7,29.47,SSW,202,13.0,13.0,58,0.00,CLR,,0.63,WeatherDisplay:10.37,2013-01-16 17:42:00,
2013-01-16 19:43:00,56.3,41.7,29.47,SSE,158,12.7,12.7,58,0.00,CLR,,0.63,WeatherDisplay:10.37,2013-01-16 17:43:00,
2013-01-16 19:44:00,56.3,41.3,29.47,SSW,202,6.9,6.9,57,0.00,CLR,,0.63,WeatherDisplay:10.37,2013-01-16 17:44:00,
2013-01-16 19:45:00,56.3,41.3,29.47,WSW,248,7.6,7.6,57,0.00,CLR,,0.63,WeatherDisplay:10.37,2013-01-16 17:45:00,
2013-01-16 19:47:00,56.3,40.8,29.50,South,180,12.7,12.7,56,0.00,CLR,,0.63,WeatherDisplay:10.37,2013-01-16 17:47:00,
2013-01-16 19:49:00,56.3,40.8,29.50,SSW,202,12.7,12.7,56,0.00,CLR,,0.63,WeatherDisplay:10.37,2013-01-16 17:49:00,
2013-01-16 19:50:00,56.3,40.8,29.50,SSW,202,8.1,8.1,56,0.00,CLR,,0.63,WeatherDisplay:10.37,2013-01-16 17:50:00,
2013-01-16 19:52:00,56.3,41.3,29.50,SSE,158,9.2,9.2,57,0.00,CLR,,0.63,WeatherDisplay:10.37,2013-01-16 17:52:00,
2013-01-16 19:54:00,56.3,41.3,29.50,SSW,202,4.0,4.0,57,0.00,CLR,,0.63,WeatherDisplay:10.37,2013-01-16 17:54:00,
2013-01-16 19:55:00,56.3,41.7,29.50,South,180,9.7,9.7,58,0.00,CLR,,0.63,WeatherDisplay:10.37,2013-01-16 17:55:00,
2013-01-16 19:57:00,56.1,41.5,29.50,South,180,5.8,5.8,58,0.00,CLR,,0.63,WeatherDisplay:10.37,2013-01-16 17:57:00,
2013-01-16 19:59:00,56.1,42.0,29.50,SSE,158,8.1,8.1,59,0.00,CLR,,0.63,WeatherDisplay:10.37,2013-01-16 17:59:00,
2013-01-16 20:00:00,56.1,42.0,29.50,South,180,5.8,5.8,59,0.00,CLR,,0.63,WeatherDisplay:10.37,2013-01-16 18:00:00,
2013-01-16 20:03:00,56.1,42.0,29.47,SSW,202,10.4,10.4,59,0.00,CLR,,0.63,WeatherDisplay:10.37,2013-01-16 18:03:00,
2013-01-16 20:04:00,56.1,42.0,29.47,SSW,202,12.3,12.3,59,0.00,CLR,,0.63,WeatherDisplay:10.37,2013-01-16 18:04:00,
2013-01-16 20:05:00,56.1,42.4,29.47,SSW,202,12.7,12.7,60,0.00,CLR,,0.63,WeatherDisplay:10.37,2013-01-16 18:05:00,
2013-01-16 20:08:00,56.1,42.0,29.47,South,180,8.1,8.1,59,0.00,CLR,,0.63,WeatherDisplay:10.37,2013-01-16 18:08:00,
2013-01-16 20:09:00,55.9,41.8,29.47,South,180,9.2,9.2,59,0.00,CLR,,0.63,WeatherDisplay:10.37,2013-01-16 18:09:00,
2013-01-16 20:10:00,55.9,41.8,29.47,SW,225,9.2,9.2,59,0.00,CLR,,0.63,WeatherDisplay:10.37,2013-01-16 18:10:00,
2013-01-16 20:13:00,55.9,42.2,29.47,SSW,202,5.8,5.8,60,0.00,CLR,,0.63,WeatherDisplay:10.37,2013-01-16 18:13:00,
2013-01-16 20:14:00,55.9,42.2,29.47,SSW,202,6.9,6.9,60,0.00,CLR,,0.63,WeatherDisplay:10.37,2013-01-16 18:14:00,
2013-01-16 20:15:00,55.9,42.2,29.47,SSW,202,6.2,6.2,60,0.00,CLR,,0.63,WeatherDisplay:10.37,2013-01-16 18:15:00,
2013-01-16 20:18:00,55.8,42.1,29.47,SSW,202,3.5,3.5,60,0.00,CLR,,0.63,WeatherDisplay:10.37,2013-01-16 18:18:00,
2013-01-16 20:19:00,55.6,41.9,29.47,SSW,202,4.6,4.6,60,0.00,CLR,,0.63,WeatherDisplay:10.37,2013-01-16 18:19:00,
2013-01-16 20:20:00,55.6,42.3,29.47,South,180,3.5,3.5,61,0.00,CLR,,0.63,WeatherDisplay:10.37,2013-01-16 18:20:00,
2013-01-16 20:23:00,55.6,42.3,29.47,SSW,202,10.4,10.4,61,0.00,CLR,,0.63,WeatherDisplay:10.37,2013-01-16 18:23:00,
2013-01-16 20:24:00,55.4,42.2,29.47,South,180,7.6,7.6,61,0.00,CLR,,0.63,WeatherDisplay:10.37,2013-01-16 18:24:00,
2013-01-16 20:25:00,55.4,42.2,29.47,SSW,202,8.1,8.1,61,0.00,CLR,,0.63,WeatherDisplay:10.37,2013-01-16 18:25:00,
2013-01-16 20:26:00,55.4,42.2,29.47,SSW,202,5.8,5.8,61,0.00,CLR,,0.63,WeatherDisplay:10.37,2013-01-16 18:26:00,
2013-01-16 20:28:00,55.2,42.0,29.47,SW,225,4.6,4.6,61,0.00,CLR,,0.63,WeatherDisplay:10.37,2013-01-16 18:28:00,
2013-01-16 20:29:00,55.2,42.0,29.47,SSW,202,5.8,5.8,61,0.00,CLR,,0.63,WeatherDisplay:10.37,2013-01-16 18:29:00,
2013-01-16 20:31:00,55.2,42.0,29.47,SSW,202,4.6,4.6,61,0.00,CLR,,0.63,WeatherDisplay:10.37,2013-01-16 18:31:00,
2013-01-16 20:34:00,55.2,40.7,29.50,SSE,158,5.8,5.8,58,0.00,CLR,,0.63,WeatherDisplay:10.37,2013-01-16 18:34:00,
2013-01-16 20:35:00,55.2,40.7,29.50,SSW,202,9.2,9.2,58,0.00,CLR,,0.63,WeatherDisplay:10.37,2013-01-16 18:35:00,
2013-01-16 20:36:00,55.2,40.2,29.50,SSW,202,5.8,5.9,57,0.00,CLR,,0.63,WeatherDisplay:10.37,2013-01-16 18:36:00,
2013-01-16 20:40:00,55.2,39.8,29.50,SSW,202,11.8,11.8,56,0.00,CLR,,0.63,WeatherDisplay:10.37,2013-01-16 18:40:00,
2013-01-16 20:41:00,55.2,39.8,29.50,SSW,202,11.5,11.5,56,0.00,CLR,,0.63,WeatherDisplay:10.37,2013-01-16 18:41:00,
2013-01-16 20:45:00,55.2,40.2,29.50,South,190,7.0,14.0,57,0.00,CLR,,0.63,WeatherDisplay:10.37,2013-01-16 18:45:00,
2013-01-16 20:46:00,55.2,40.2,29.50,SSW,202,9.2,9.2,57,0.00,CLR,,0.63,WeatherDisplay:10.37,2013-01-16 18:46:00,
2013-01-16 20:50:00,55.2,39.8,29.47,South,180,6.9,7.4,56,0.00,CLR,,0.63,WeatherDisplay:10.37,2013-01-16 18:50:00,
2013-01-16 20:51:00,55.2,39.8,29.47,SSW,202,12.7,12.7,56,0.00,CLR,,0.63,WeatherDisplay:10.37,2013-01-16 18:51:00,
2013-01-16 20:55:00,55.0,39.6,29.47,SSE,158,8.1,8.1,56,0.00,CLR,,0.63,WeatherDisplay:10.37,2013-01-16 18:55:00,
2013-01-16 20:56:00,55.0,39.6,29.47,SE,135,8.1,8.1,56,0.00,CLR,,0.63,WeatherDisplay:10.37,2013-01-16 18:56:00,
2013-01-16 21:00:00,55.0,38.7,29.47,WSW,248,19.6,19.6,54,0.00,CLR,,0.63,WeatherDisplay:10.37,2013-01-16 19:00:00,
2013-01-16 21:01:00,55.0,39.2,29.47,SSW,202,19.6,19.6,55,0.00,CLR,,0.63,WeatherDisplay:10.37,2013-01-16 19:01:00,
2013-01-16 21:05:00,55.0,40.1,29.47,SSW,202,16.1,16.1,57,0.00,CLR,,0.63,WeatherDisplay:10.37,2013-01-16 19:05:00,
2013-01-16 21:06:00,55.0,40.1,29.47,South,180,16.1,16.1,57,0.00,CLR,,0.63,WeatherDisplay:10.37,2013-01-16 19:06:00,
2013-01-16 21:07:00,55.0,40.5,29.47,South,180,16.1,16.1,58,0.00,CLR,,0.63,WeatherDisplay:10.37,2013-01-16 19:07:00,
2013-01-16 21:10:00,55.0,40.5,29.47,SSW,202,15.0,15.0,58,0.00,CLR,,0.63,WeatherDisplay:10.37,2013-01-16 19:10:00,
2013-01-16 21:11:00,55.0,40.5,29.47,SSE,158,15.0,15.0,58,0.00,CLR,,0.63,WeatherDisplay:10.37,2013-01-16 19:11:00,
2013-01-16 21:12:00,55.2,40.7,29.47,SSE,158,10.4,10.4,58,0.00,CLR,,0.63,WeatherDisplay:10.37,2013-01-16 19:12:00,
2013-01-16 21:15:00,55.0,40.1,29.47,SSW,202,12.8,12.8,57,0.00,CLR,,0.63,WeatherDisplay:10.37,2013-01-16 19:15:00,
2013-01-16 21:16:00,55.0,40.1,29.47,SSW,202,12.8,12.8,57,0.00,CLR,,0.63,WeatherDisplay:10.37,2013-01-16 19:16:00,
2013-01-16 21:17:00,55.0,40.1,29.47,SE,135,15.0,15.0,57,0.00,CLR,,0.63,WeatherDisplay:10.37,2013-01-16 19:17:00,
2013-01-16 21:21:00,55.2,40.2,29.47,SSW,202,10.4,10.4,57,0.00,CLR,,0.63,WeatherDisplay:10.37,2013-01-16 19:21:00,
2013-01-16 21:22:00,55.2,40.2,29.47,SSE,158,12.7,12.7,57,0.00,CLR,,0.63,WeatherDisplay:10.37,2013-01-16 19:22:00,
2013-01-16 21:26:00,55.2,40.7,29.47,SE,135,13.8,13.8,58,0.00,CLR,,0.63,WeatherDisplay:10.37,2013-01-16 19:26:00,
2013-01-16 21:27:00,55.2,40.7,29.47,SSE,158,11.5,11.5,58,0.00,CLR,,0.63,WeatherDisplay:10.37,2013-01-16 19:27:00,
2013-01-16 21:31:00,55.4,41.3,29.47,SSW,202,22.1,22.1,59,0.00,CLR,,0.63,WeatherDisplay:10.37,2013-01-16 19:31:00,
2013-01-16 21:32:00,55.2,40.2,29.47,SSW,202,24.2,24.2,57,0.00,CLR,,0.63,WeatherDisplay:10.37,2013-01-16 19:32:00,
2013-01-16 21:33:00,55.0,40.5,29.47,SSW,202,24.2,24.2,58,0.00,CLR,,0.63,WeatherDisplay:10.37,2013-01-16 19:33:00,
2013-01-16 21:36:00,54.9,41.2,29.47,South,180,8.1,8.1,60,0.00,CLR,,0.63,WeatherDisplay:10.37,2013-01-16 19:36:00,
2013-01-16 21:37:00,54.7,41.1,29.47,SSW,202,19.6,19.6,60,0.00,CLR,,0.63,WeatherDisplay:10.37,2013-01-16 19:37:00,
2013-01-16 21:38:00,54.5,40.9,29.47,South,180,19.6,19.6,60,0.00,CLR,,0.63,WeatherDisplay:10.37,2013-01-16 19:38:00,
2013-01-16 21:41:00,54.3,39.8,29.47,SSW,202,17.3,17.3,58,0.00,CLR,,0.63,WeatherDisplay:10.37,2013-01-16 19:41:00,
2013-01-16 21:42:00,54.3,39.8,29.47,SSW,202,13.8,13.8,58,0.00,CLR,,0.63,WeatherDisplay:10.37,2013-01-16 19:42:00,
2013-01-16 21:43:00,54.1,39.7,29.47,South,180,8.1,8.1,58,0.00,CLR,,0.63,WeatherDisplay:10.37,2013-01-16 19:43:00,
2013-01-16 21:46:00,54.1,40.1,29.47,SSE,158,16.1,16.1,59,0.00,CLR,,0.63,WeatherDisplay:10.37,2013-01-16 19:46:00,
2013-01-16 21:47:00,54.1,40.1,29.47,SSW,202,11.5,11.5,59,0.00,CLR,,0.63,WeatherDisplay:10.37,2013-01-16 19:47:00,
2013-01-16 21:49:00,54.1,40.6,29.47,South,180,8.1,8.1,60,0.00,CLR,,0.63,WeatherDisplay:10.37,2013-01-16 19:49:00,
2013-01-16 21:51:00,54.1,40.6,29.47,SSE,158,12.7,12.7,60,0.00,CLR,,0.63,WeatherDisplay:10.37,2013-01-16 19:51:00,
2013-01-16 21:52:00,54.1,40.1,29.47,SSW,202,12.7,12.7,59,0.00,CLR,,0.63,WeatherDisplay:10.37,2013-01-16 19:52:00,
2013-01-16 21:54:00,54.1,40.1,29.47,South,180,10.4,10.4,59,0.00,CLR,,0.63,WeatherDisplay:10.37,2013-01-16 19:54:00,
2013-01-16 21:56:00,54.0,39.9,29.47,South,180,17.3,17.3,59,0.00,CLR,,0.63,WeatherDisplay:10.37,2013-01-16 19:56:00,
2013-01-16 21:57:00,54.0,39.9,29.47,SSW,202,6.9,6.9,59,0.00,CLR,,0.63,WeatherDisplay:10.37,2013-01-16 19:57:00,
2013-01-16 21:59:00,54.0,39.9,29.47,South,180,5.8,5.8,59,0.00,CLR,,0.63,WeatherDisplay:10.37,2013-01-16 19:59:00,
2013-01-16 22:01:00,54.0,40.8,29.47,SW,225,8.1,8.1,61,0.00,CLR,,0.63,WeatherDisplay:10.37,2013-01-16 20:01:00,
2013-01-16 22:02:00,54.0,41.2,29.47,SW,225,8.1,8.1,62,0.00,CLR,,0.63,WeatherDisplay:10.37,2013-01-16 20:02:00,
2013-01-16 22:03:00,54.0,41.6,29.47,South,180,8.1,8.1,63,0.00,CLR,,0.63,WeatherDisplay:10.37,2013-01-16 20:03:00,
2013-01-16 22:04:00,53.8,41.9,29.47,SSW,202,12.7,12.7,64,0.00,CLR,,0.63,WeatherDisplay:10.37,2013-01-16 20:04:00,
2013-01-16 22:06:00,53.8,42.3,29.47,South,180,6.9,6.9,65,0.00,CLR,,0.63,WeatherDisplay:10.37,2013-01-16 20:06:00,
2013-01-16 22:07:00,53.8,42.3,29.47,WSW,248,10.4,10.4,65,0.00,CLR,,0.63,WeatherDisplay:10.37,2013-01-16 20:07:00,
2013-01-16 22:08:00,53.8,42.3,29.47,South,180,10.4,10.4,65,0.00,CLR,,0.63,WeatherDisplay:10.37,2013-01-16 20:08:00,
2013-01-16 22:09:00,53.6,42.1,29.47,SSE,158,9.2,9.2,65,0.00,CLR,,0.63,WeatherDisplay:10.37,2013-01-16 20:09:00,
2013-01-16 22:11:00,53.4,42.3,29.47,SSE,158,11.5,11.5,66,0.00,CLR,,0.63,WeatherDisplay:10.37,2013-01-16 20:11:00,
2013-01-16 22:12:00,53.4,42.3,29.47,SSW,202,12.7,12.7,66,0.00,CLR,,0.63,WeatherDisplay:10.37,2013-01-16 20:12:00,
2013-01-16 22:13:00,53.4,42.3,29.47,South,180,10.4,10.4,66,0.00,CLR,,0.63,WeatherDisplay:10.37,2013-01-16 20:13:00,
2013-01-16 22:14:00,53.4,42.7,29.47,SSW,202,13.8,13.8,67,0.00,CLR,,0.63,WeatherDisplay:10.37,2013-01-16 20:14:00,
2013-01-16 22:17:00,53.2,42.2,29.47,South,180,5.9,5.9,66,0.00,CLR,,0.63,WeatherDisplay:10.37,2013-01-16 20:17:00,
2013-01-16 22:18:00,53.2,42.2,29.47,SSE,158,7.8,7.8,66,0.00,CLR,,0.63,WeatherDisplay:10.37,2013-01-16 20:18:00,
2013-01-16 22:19:00,53.2,42.6,29.47,SSW,202,8.1,8.1,67,0.00,CLR,,0.63,WeatherDisplay:10.37,2013-01-16 20:19:00,
2013-01-16 22:22:00,53.1,42.4,29.47,SSE,158,5.8,5.8,67,0.00,CLR,,0.63,WeatherDisplay:10.37,2013-01-16 20:22:00,
2013-01-16 22:23:00,53.1,42.8,29.47,South,180,5.8,5.8,68,0.00,CLR,,0.63,WeatherDisplay:10.37,2013-01-16 20:23:00,
2013-01-16 22:24:00,53.1,42.8,29.47,South,180,8.1,8.1,68,0.00,CLR,,0.63,WeatherDisplay:10.37,2013-01-16 20:24:00,
2013-01-16 22:27:00,53.1,42.8,29.47,South,180,8.1,8.1,68,0.00,CLR,,0.63,WeatherDisplay:10.37,2013-01-16 20:27:00,
2013-01-16 22:28:00,53.1,42.8,29.47,SSW,202,6.9,6.9,68,0.00,CLR,,0.63,WeatherDisplay:10.37,2013-01-16 20:28:00,
2013-01-16 22:29:00,53.1,43.2,29.47,South,180,8.1,8.1,69,0.00,CLR,,0.63,WeatherDisplay:10.37,2013-01-16 20:29:00,
2013-01-16 22:33:00,52.9,42.6,29.47,SSW,202,11.5,11.5,68,0.00,CLR,,0.63,WeatherDisplay:10.37,2013-01-16 20:33:00,
2013-01-16 22:34:00,52.9,42.6,29.47,SSW,202,11.5,11.5,68,0.00,CLR,,0.63,WeatherDisplay:10.37,2013-01-16 20:34:00,
2013-01-16 22:38:00,52.9,42.2,29.47,SW,225,12.7,12.7,67,0.00,CLR,,0.63,WeatherDisplay:10.37,2013-01-16 20:38:00,
2013-01-16 22:40:00,52.9,42.6,29.47,SSW,202,6.9,6.9,68,0.00,CLR,,0.63,WeatherDisplay:10.37,2013-01-16 20:40:00,
2013-01-16 22:43:00,52.9,43.0,29.47,SSE,158,5.9,5.9,69,0.00,CLR,,0.63,WeatherDisplay:10.37,2013-01-16 20:43:00,
2013-01-16 22:44:00,52.9,43.0,29.47,SSW,202,5.8,5.8,69,0.00,CLR,,0.63,WeatherDisplay:10.37,2013-01-16 20:44:00,
2013-01-16 22:45:00,52.9,43.0,29.47,SSW,202,5.8,5.8,69,0.00,CLR,,0.63,WeatherDisplay:10.37,2013-01-16 20:45:00,
2013-01-16 22:48:00,52.9,43.0,29.47,SSW,202,11.5,11.5,69,0.00,CLR,,0.63,WeatherDisplay:10.37,2013-01-16 20:48:00,
2013-01-16 22:49:00,52.9,43.0,29.47,SSE,158,11.5,11.5,69,0.00,CLR,,0.63,WeatherDisplay:10.37,2013-01-16 20:49:00,
2013-01-16 22:50:00,52.9,43.0,29.47,SSW,201,5.0,12.0,69,0.00,CLR,,0.63,WeatherDisplay:10.37,2013-01-16 20:50:00,
2013-01-16 22:53:00,52.9,43.7,29.47,South,180,5.8,5.8,71,0.00,CLR,,0.63,WeatherDisplay:10.37,2013-01-16 20:53:00,
2013-01-16 22:54:00,52.9,43.7,29.47,SSW,202,5.9,5.9,71,0.00,CLR,,0.63,WeatherDisplay:10.37,2013-01-16 20:54:00,
2013-01-16 22:55:00,53.1,43.9,29.47,WSW,248,9.2,9.2,71,0.00,CLR,,0.63,WeatherDisplay:10.37,2013-01-16 20:55:00,
2013-01-16 22:58:00,53.1,44.3,29.47,SSW,202,7.4,7.4,72,0.00,CLR,,0.63,WeatherDisplay:10.37,2013-01-16 20:58:00,
2013-01-16 22:59:00,53.1,44.3,29.47,SSW,202,6.9,6.9,72,0.00,CLR,,0.63,WeatherDisplay:10.37,2013-01-16 20:59:00,
2013-01-16 23:00:00,53.1,44.3,29.47,SSW,202,9.8,9.8,72,0.00,CLR,,0.63,WeatherDisplay:10.37,2013-01-16 21:00:00,
2013-01-16 23:04:00,53.1,44.6,29.47,SSW,202,7.6,7.6,73,0.00,CLR,,0.63,WeatherDisplay:10.37,2013-01-16 21:04:00,
2013-01-16 23:05:00,53.1,44.6,29.47,South,180,8.1,8.1,73,0.00,CLR,,0.63,WeatherDisplay:10.37,2013-01-16 21:05:00,
2013-01-16 23:09:00,53.1,45.0,29.47,South,180,6.9,6.9,74,0.00,CLR,,0.63,WeatherDisplay:10.37,2013-01-16 21:09:00,
2013-01-16 23:10:00,53.1,44.6,29.47,SSW,202,8.1,8.1,73,0.00,CLR,,0.63,WeatherDisplay:10.37,2013-01-16 21:10:00,
2013-01-16 23:14:00,53.1,43.2,29.47,SSW,202,4.6,4.6,69,0.00,CLR,,0.63,WeatherDisplay:10.37,2013-01-16 21:14:00,
2013-01-16 23:15:00,53.1,43.2,29.47,South,180,6.2,6.2,69,0.00,CLR,,0.63,WeatherDisplay:10.37,2013-01-16 21:15:00,
2013-01-16 23:19:00,53.1,42.8,29.47,SSW,202,8.1,8.1,68,0.00,CLR,,0.63,WeatherDisplay:10.37,2013-01-16 21:19:00,
2013-01-16 23:20:00,53.1,42.8,29.47,SSW,202,9.2,9.2,68,0.00,CLR,,0.63,WeatherDisplay:10.37,2013-01-16 21:20:00,
2013-01-16 23:24:00,53.1,42.8,29.47,SSW,202,4.6,4.6,68,0.00,CLR,,0.63,WeatherDisplay:10.37,2013-01-16 21:24:00,
2013-01-16 23:25:00,53.1,42.8,29.47,SSW,202,5.8,5.8,68,0.00,CLR,,0.63,WeatherDisplay:10.37,2013-01-16 21:25:00,
2013-01-16 23:26:00,53.1,42.8,29.47,SSW,202,5.8,5.8,68,0.00,CLR,,0.63,WeatherDisplay:10.37,2013-01-16 21:26:00,
2013-01-16 23:29:00,53.1,43.2,29.47,SSW,202,5.8,5.8,69,0.00,CLR,,0.63,WeatherDisplay:10.37,2013-01-16 21:29:00,
2013-01-16 23:30:00,53.1,43.2,29.47,SSW,205,5.0,7.0,69,0.00,CLR,,0.63,WeatherDisplay:10.37,2013-01-16 21:30:00,
2013-01-16 23:31:00,53.1,43.2,29.47,SSE,158,8.1,8.1,69,0.00,CLR,,0.63,WeatherDisplay:10.37,2013-01-16 21:31:00,
2013-01-16 23:34:00,53.1,43.5,29.47,SSW,202,5.8,6.2,70,0.00,CLR,,0.63,WeatherDisplay:10.37,2013-01-16 21:34:00,
2013-01-16 23:35:00,53.1,43.5,29.47,SSW,202,5.8,5.8,70,0.00,CLR,,0.63,WeatherDisplay:10.37,2013-01-16 21:35:00,
2013-01-16 23:36:00,53.1,43.5,29.47,SSW,202,6.9,6.9,70,0.00,CLR,,0.63,WeatherDisplay:10.37,2013-01-16 21:36:00,
2013-01-16 23:40:00,53.1,43.9,29.47,South,180,8.1,8.1,71,0.00,CLR,,0.63,WeatherDisplay:10.37,2013-01-16 21:40:00,
2013-01-16 23:41:00,53.1,43.9,29.47,SSW,202,5.8,5.8,71,0.00,CLR,,0.63,WeatherDisplay:10.37,2013-01-16 21:41:00,
2013-01-16 23:45:00,53.1,43.9,29.47,South,180,12.7,12.7,71,0.00,CLR,,0.63,WeatherDisplay:10.37,2013-01-16 21:45:00,
2013-01-16 23:46:00,52.9,43.7,29.47,South,180,7.8,7.8,71,0.00,CLR,,0.63,WeatherDisplay:10.37,2013-01-16 21:46:00,
2013-01-16 23:50:00,52.9,43.7,29.47,SSW,202,10.4,10.4,71,0.00,CLR,,0.63,WeatherDisplay:10.37,2013-01-16 21:50:00,
2013-01-16 23:51:00,52.9,43.7,29.47,SSW,202,10.4,10.4,71,0.00,CLR,,0.63,WeatherDisplay:10.37,2013-01-16 21:51:00,
2013-01-16 23:55:00,52.7,44.3,29.47,SSW,202,12.5,12.5,73,0.00,CLR,,0.63,WeatherDisplay:10.37,2013-01-16 21:55:00,
2013-01-16 23:56:00,52.7,44.6,29.47,SW,225,10.4,10.4,74,0.00,CLR,,0.63,WeatherDisplay:10.37,2013-01-16 21:56:00,